JBU32 EHAM-KBOS
Flight info
| Callsign | JBU32 |
|---|---|
| Flight time | 7h 27m |
| Altitude | 32000 |
| Route | BERGI L60 PENIL M144 BAGSO DCT OLAPO DCT DOGAL/M079F340 NATC ELSIR/N0458F360 DCT TUSKY DCT EURRO OOSHN5 |
| Aircraft | A21N/M-SDE3FGHIRWY/LB1 |
Departure
| Time | 2026-05-07 09:59 |
|---|---|
| Airport | Amsterdam Airport Schiphol (EHAM) |
Arrival
| Time | 2026-05-07 17:26 |
|---|---|
| Airport | Boston Logan International Airport (KBOS) |
| Time | Latitude | Longitude | Altitude | Speed | Heading |
|---|---|---|---|---|---|
| 2026-05-07 09:26 | 52.30706 | 4.77025 | 9 ft | 0 kts | 3° |
| 2026-05-07 09:45 | 52.30696 | 4.77025 | 9 ft | 2 kts | 2° |
| 2026-05-07 09:46 | 52.30683 | 4.77023 | 9 ft | 2 kts | 355° |
| 2026-05-07 09:46 | 52.30669 | 4.77031 | 9 ft | 2 kts | 328° |
| 2026-05-07 09:46 | 52.30658 | 4.77047 | 8 ft | 2 kts | 305° |
| 2026-05-07 09:46 | 52.30651 | 4.77069 | 8 ft | 2 kts | 283° |
| 2026-05-07 09:47 | 52.30650 | 4.77086 | 8 ft | 0 kts | 270° |
| 2026-05-07 09:47 | 52.30650 | 4.77094 | 8 ft | 0 kts | 273° |
| 2026-05-07 09:50 | 52.30649 | 4.77078 | 8 ft | 4 kts | 258° |
| 2026-05-07 09:50 | 52.30621 | 4.77037 | 7 ft | 6 kts | 193° |
| 2026-05-07 09:50 | 52.30568 | 4.77068 | 6 ft | 8 kts | 147° |
| 2026-05-07 09:50 | 52.30505 | 4.77065 | 3 ft | 12 kts | 226° |
| 2026-05-07 09:51 | 52.30446 | 4.76914 | 1 ft | 18 kts | 238° |
| 2026-05-07 09:51 | 52.30367 | 4.76709 | 0 ft | 23 kts | 238° |
| 2026-05-07 09:51 | 52.30279 | 4.76480 | 0 ft | 23 kts | 238° |
| 2026-05-07 09:51 | 52.30197 | 4.76265 | 0 ft | 22 kts | 237° |
| 2026-05-07 09:52 | 52.30112 | 4.76042 | 1 ft | 23 kts | 238° |
| 2026-05-07 09:52 | 52.30022 | 4.75807 | 0 ft | 24 kts | 238° |
| 2026-05-07 09:52 | 52.29933 | 4.75579 | 0 ft | 22 kts | 238° |
| 2026-05-07 09:52 | 52.29855 | 4.75376 | 0 ft | 18 kts | 238° |
| 2026-05-07 09:53 | 52.29843 | 4.75191 | 1 ft | 16 kts | 306° |
| 2026-05-07 09:53 | 52.29917 | 4.75051 | 2 ft | 17 kts | 312° |
| 2026-05-07 09:53 | 52.30009 | 4.74882 | 1 ft | 20 kts | 311° |
| 2026-05-07 09:53 | 52.30106 | 4.74703 | -1 ft | 21 kts | 312° |
| 2026-05-07 09:54 | 52.30191 | 4.74545 | -5 ft | 17 kts | 311° |
| 2026-05-07 09:54 | 52.30272 | 4.74398 | -9 ft | 18 kts | 312° |
| 2026-05-07 09:54 | 52.30336 | 4.74278 | -11 ft | 8 kts | 311° |
| 2026-05-07 09:54 | 52.30371 | 4.74211 | -12 ft | 8 kts | 310° |
| 2026-05-07 09:55 | 52.30406 | 4.74145 | -12 ft | 7 kts | 311° |
| 2026-05-07 09:55 | 52.30427 | 4.74076 | -12 ft | 6 kts | 277° |
| 2026-05-07 09:55 | 52.30423 | 4.74037 | -11 ft | 0 kts | 248° |
| 2026-05-07 09:55 | 52.30422 | 4.74036 | -11 ft | 0 kts | 248° |
| 2026-05-07 09:56 | 52.30414 | 4.74002 | -10 ft | 3 kts | 250° |
| 2026-05-07 09:56 | 52.30409 | 4.73932 | -10 ft | 4 kts | 272° |
| 2026-05-07 09:56 | 52.30409 | 4.73896 | -10 ft | 0 kts | 272° |
| 2026-05-07 09:56 | 52.30409 | 4.73889 | -10 ft | 1 kts | 272° |
| 2026-05-07 09:57 | 52.30410 | 4.73845 | -10 ft | 7 kts | 272° |
| 2026-05-07 09:57 | 52.30420 | 4.73762 | -9 ft | 6 kts | 315° |
| 2026-05-07 09:57 | 52.30455 | 4.73757 | -9 ft | 0 kts | 3° |
| 2026-05-07 09:58 | 52.30468 | 4.73758 | -9 ft | 6 kts | 3° |
| 2026-05-07 09:58 | 52.30648 | 4.73775 | -9 ft | 58 kts | 4° |
| 2026-05-07 09:58 | 52.31283 | 4.73835 | -1 ft | 122 kts | 3° |
| 2026-05-07 09:58 | 52.32327 | 4.73928 | -2 ft | 174 kts | 4° |
| 2026-05-07 09:59 | 52.33562 | 4.74017 | 471 ft | 181 kts | 4° |
| 2026-05-07 09:59 | 52.34818 | 4.73794 | 1119 ft | 185 kts | 344° |
| 2026-05-07 09:59 | 52.36013 | 4.73132 | 1831 ft | 182 kts | 345° |
| 2026-05-07 09:59 | 52.37235 | 4.72492 | 2169 ft | 191 kts | 344° |
| 2026-05-07 10:00 | 52.38545 | 4.71780 | 2434 ft | 204 kts | 343° |
| 2026-05-07 10:00 | 52.39927 | 4.71033 | 2693 ft | 218 kts | 343° |
| 2026-05-07 10:00 | 52.41439 | 4.70223 | 2922 ft | 235 kts | 343° |
| 2026-05-07 10:00 | 52.43030 | 4.69383 | 3329 ft | 245 kts | 343° |
| 2026-05-07 10:01 | 52.44688 | 4.68515 | 3718 ft | 256 kts | 343° |
| 2026-05-07 10:01 | 52.46402 | 4.67627 | 4296 ft | 260 kts | 343° |
| 2026-05-07 10:01 | 52.48136 | 4.66737 | 4931 ft | 262 kts | 343° |
| 2026-05-07 10:01 | 52.49842 | 4.65824 | 5534 ft | 264 kts | 338° |
| 2026-05-07 10:02 | 52.51431 | 4.64262 | 6139 ft | 267 kts | 324° |
| 2026-05-07 10:02 | 52.52904 | 4.62397 | 6742 ft | 270 kts | 322° |
| 2026-05-07 10:02 | 52.54382 | 4.60488 | 7335 ft | 273 kts | 321° |
| 2026-05-07 10:02 | 52.55596 | 4.58148 | 7861 ft | 277 kts | 300° |
| 2026-05-07 10:03 | 52.56462 | 4.55286 | 8454 ft | 278 kts | 295° |
| 2026-05-07 10:03 | 52.57263 | 4.52399 | 8991 ft | 281 kts | 295° |
| 2026-05-07 10:03 | 52.58081 | 4.49526 | 9547 ft | 283 kts | 296° |
| 2026-05-07 10:03 | 52.58939 | 4.46621 | 10088 ft | 285 kts | 297° |
| 2026-05-07 10:04 | 52.59830 | 4.43674 | 10490 ft | 292 kts | 297° |
| 2026-05-07 10:04 | 52.60764 | 4.40633 | 10727 ft | 305 kts | 297° |
| 2026-05-07 10:04 | 52.61752 | 4.37449 | 10939 ft | 317 kts | 298° |
| 2026-05-07 10:04 | 52.62774 | 4.34171 | 11171 ft | 330 kts | 297° |
| 2026-05-07 10:05 | 52.63836 | 4.30765 | 11394 ft | 341 kts | 297° |
| 2026-05-07 10:05 | 52.64939 | 4.27235 | 11628 ft | 352 kts | 297° |
| 2026-05-07 10:05 | 52.66073 | 4.23602 | 12039 ft | 357 kts | 297° |
| 2026-05-07 10:05 | 52.67203 | 4.19976 | 12533 ft | 359 kts | 297° |
| 2026-05-07 10:06 | 52.68343 | 4.16312 | 13014 ft | 361 kts | 297° |
| 2026-05-07 10:06 | 52.69476 | 4.12669 | 13491 ft | 363 kts | 297° |
| 2026-05-07 10:06 | 52.70631 | 4.08952 | 13953 ft | 365 kts | 297° |
| 2026-05-07 10:06 | 52.71789 | 4.05217 | 14414 ft | 366 kts | 297° |
| 2026-05-07 10:07 | 52.72963 | 4.01426 | 14856 ft | 369 kts | 297° |
| 2026-05-07 10:07 | 52.74128 | 3.97659 | 15279 ft | 371 kts | 297° |
| 2026-05-07 10:07 | 52.75295 | 3.93878 | 15693 ft | 373 kts | 297° |
| 2026-05-07 10:07 | 52.76478 | 3.90038 | 16133 ft | 376 kts | 297° |
| 2026-05-07 10:08 | 52.77671 | 3.86160 | 16516 ft | 378 kts | 297° |
| 2026-05-07 10:08 | 52.78857 | 3.82300 | 16917 ft | 380 kts | 297° |
| 2026-05-07 10:08 | 52.80047 | 3.78423 | 17289 ft | 383 kts | 297° |
| 2026-05-07 10:08 | 52.81260 | 3.74459 | 17682 ft | 385 kts | 297° |
| 2026-05-07 10:09 | 52.82492 | 3.70431 | 18024 ft | 387 kts | 297° |
| 2026-05-07 10:09 | 52.83715 | 3.66423 | 18391 ft | 390 kts | 297° |
| 2026-05-07 10:09 | 52.84929 | 3.62441 | 18734 ft | 392 kts | 297° |
| 2026-05-07 10:09 | 52.86152 | 3.58419 | 19084 ft | 394 kts | 297° |
| 2026-05-07 10:10 | 52.87386 | 3.54353 | 19408 ft | 396 kts | 297° |
| 2026-05-07 10:10 | 52.88614 | 3.50303 | 19725 ft | 398 kts | 297° |
| 2026-05-07 10:10 | 52.89862 | 3.46180 | 20044 ft | 400 kts | 297° |
| 2026-05-07 10:10 | 52.91097 | 3.42094 | 20336 ft | 403 kts | 297° |
| 2026-05-07 10:11 | 52.92357 | 3.37919 | 20634 ft | 405 kts | 297° |
| 2026-05-07 10:11 | 52.93609 | 3.33757 | 20930 ft | 407 kts | 296° |
| 2026-05-07 10:11 | 52.94866 | 3.29570 | 21225 ft | 408 kts | 296° |
| 2026-05-07 10:11 | 52.96124 | 3.25378 | 21507 ft | 410 kts | 296° |
| 2026-05-07 10:12 | 52.97326 | 3.21034 | 21771 ft | 412 kts | 293° |
| 2026-05-07 10:12 | 52.98348 | 3.16643 | 22022 ft | 415 kts | 289° |
| 2026-05-07 10:12 | 52.99252 | 3.12080 | 22273 ft | 417 kts | 288° |
| 2026-05-07 10:12 | 53.00120 | 3.07510 | 22526 ft | 419 kts | 288° |
| 2026-05-07 10:13 | 53.00988 | 3.02905 | 22781 ft | 420 kts | 287° |
| 2026-05-07 10:13 | 53.01861 | 2.98266 | 23040 ft | 422 kts | 288° |
| 2026-05-07 10:13 | 53.02732 | 2.93635 | 23300 ft | 423 kts | 288° |
| 2026-05-07 10:13 | 53.03612 | 2.88959 | 23548 ft | 424 kts | 288° |
| 2026-05-07 10:14 | 53.04497 | 2.84253 | 23773 ft | 426 kts | 288° |
| 2026-05-07 10:14 | 53.05382 | 2.79534 | 23989 ft | 428 kts | 288° |
| 2026-05-07 10:14 | 53.06260 | 2.74842 | 24203 ft | 430 kts | 288° |
| 2026-05-07 10:14 | 53.07148 | 2.70084 | 24411 ft | 432 kts | 288° |
| 2026-05-07 10:15 | 53.08040 | 2.65290 | 24626 ft | 434 kts | 288° |
| 2026-05-07 10:15 | 53.08930 | 2.60499 | 24840 ft | 435 kts | 288° |
| 2026-05-07 10:15 | 53.09830 | 2.55610 | 25056 ft | 437 kts | 287° |
| 2026-05-07 10:15 | 53.10610 | 2.50648 | 25264 ft | 439 kts | 284° |
| 2026-05-07 10:16 | 53.11210 | 2.45630 | 25475 ft | 440 kts | 280° |
| 2026-05-07 10:16 | 53.11665 | 2.40512 | 25681 ft | 442 kts | 279° |
| 2026-05-07 10:16 | 53.12083 | 2.35408 | 25885 ft | 443 kts | 278° |
| 2026-05-07 10:16 | 53.12494 | 2.30314 | 26074 ft | 445 kts | 278° |
| 2026-05-07 10:17 | 53.12902 | 2.25215 | 26259 ft | 446 kts | 278° |
| 2026-05-07 10:17 | 53.13309 | 2.20123 | 26435 ft | 448 kts | 278° |
| 2026-05-07 10:17 | 53.13723 | 2.14947 | 26607 ft | 449 kts | 278° |
| 2026-05-07 10:17 | 53.14132 | 2.09817 | 26780 ft | 451 kts | 278° |
| 2026-05-07 10:18 | 53.14543 | 2.04644 | 26953 ft | 452 kts | 278° |
| 2026-05-07 10:18 | 53.14953 | 1.99473 | 27119 ft | 453 kts | 278° |
| 2026-05-07 10:18 | 53.15365 | 1.94237 | 27298 ft | 454 kts | 278° |
| 2026-05-07 10:18 | 53.15774 | 1.88999 | 27446 ft | 456 kts | 278° |
| 2026-05-07 10:19 | 53.16180 | 1.83784 | 27597 ft | 457 kts | 278° |
| 2026-05-07 10:19 | 53.16582 | 1.78580 | 27795 ft | 457 kts | 278° |
| 2026-05-07 10:19 | 53.16981 | 1.73380 | 28046 ft | 456 kts | 278° |
| 2026-05-07 10:19 | 53.17380 | 1.68152 | 28287 ft | 455 kts | 278° |
| 2026-05-07 10:20 | 53.17779 | 1.62908 | 28506 ft | 455 kts | 278° |
| 2026-05-07 10:20 | 53.18175 | 1.57656 | 28719 ft | 455 kts | 278° |
| 2026-05-07 10:20 | 53.18564 | 1.52477 | 28918 ft | 455 kts | 278° |
| 2026-05-07 10:20 | 53.18955 | 1.47244 | 29133 ft | 455 kts | 278° |
| 2026-05-07 10:21 | 53.19341 | 1.42027 | 29342 ft | 455 kts | 278° |
| 2026-05-07 10:21 | 53.19734 | 1.36696 | 29580 ft | 454 kts | 278° |
| 2026-05-07 10:21 | 53.20128 | 1.31316 | 29806 ft | 454 kts | 277° |
| 2026-05-07 10:21 | 53.20513 | 1.26011 | 30014 ft | 454 kts | 277° |
| 2026-05-07 10:22 | 53.20903 | 1.20621 | 30248 ft | 453 kts | 277° |
| 2026-05-07 10:22 | 53.21284 | 1.15320 | 30463 ft | 453 kts | 277° |
| 2026-05-07 10:22 | 53.21656 | 1.10112 | 30628 ft | 453 kts | 277° |
| 2026-05-07 10:22 | 53.22026 | 1.04891 | 30796 ft | 454 kts | 277° |
| 2026-05-07 10:23 | 53.22393 | 0.99687 | 30960 ft | 454 kts | 278° |
| 2026-05-07 10:23 | 53.22757 | 0.94502 | 31116 ft | 455 kts | 277° |
| 2026-05-07 10:23 | 53.23125 | 0.89225 | 31258 ft | 456 kts | 278° |
| 2026-05-07 10:23 | 53.23489 | 0.83967 | 31390 ft | 457 kts | 277° |
| 2026-05-07 10:24 | 53.23847 | 0.78753 | 31514 ft | 457 kts | 277° |
| 2026-05-07 10:24 | 53.24209 | 0.73454 | 31660 ft | 458 kts | 277° |
| 2026-05-07 10:24 | 53.24566 | 0.68200 | 31774 ft | 459 kts | 277° |
| 2026-05-07 10:24 | 53.24921 | 0.62930 | 31890 ft | 460 kts | 277° |
| 2026-05-07 10:25 | 53.25277 | 0.57612 | 32015 ft | 461 kts | 277° |
| 2026-05-07 10:25 | 53.25981 | 0.46983 | 32065 ft | 461 kts | 277° |
| 2026-05-07 10:26 | 53.26674 | 0.36370 | 32060 ft | 462 kts | 277° |
| 2026-05-07 10:26 | 53.27363 | 0.25671 | 32054 ft | 460 kts | 277° |
| 2026-05-07 10:27 | 53.28037 | 0.15083 | 32053 ft | 461 kts | 276° |
| 2026-05-07 10:27 | 53.28716 | 0.04457 | 32048 ft | 462 kts | 278° |
| 2026-05-07 10:28 | 53.29734 | -0.06107 | 32051 ft | 461 kts | 281° |
| 2026-05-07 10:28 | 53.30834 | -0.16607 | 32055 ft | 461 kts | 280° |
| 2026-05-07 10:29 | 53.31927 | -0.27179 | 32055 ft | 461 kts | 280° |
| 2026-05-07 10:29 | 53.32996 | -0.37683 | 32056 ft | 461 kts | 280° |
| 2026-05-07 10:30 | 53.34591 | -0.53515 | 32055 ft | 462 kts | 280° |
| 2026-05-07 10:30 | 53.35642 | -0.64090 | 32054 ft | 462 kts | 280° |
| 2026-05-07 10:31 | 53.36686 | -0.74656 | 32051 ft | 462 kts | 279° |
| 2026-05-07 10:31 | 53.37723 | -0.85258 | 32049 ft | 460 kts | 278° |
| 2026-05-07 10:32 | 53.38735 | -0.95742 | 32045 ft | 460 kts | 278° |
| 2026-05-07 10:32 | 53.39757 | -1.06411 | 32041 ft | 460 kts | 278° |
| 2026-05-07 10:33 | 53.40758 | -1.16962 | 32038 ft | 461 kts | 278° |
| 2026-05-07 10:33 | 53.41757 | -1.27605 | 32034 ft | 461 kts | 278° |
| 2026-05-07 10:34 | 53.42741 | -1.38178 | 32031 ft | 459 kts | 278° |
| 2026-05-07 10:34 | 53.43712 | -1.48748 | 32030 ft | 458 kts | 278° |
| 2026-05-07 10:35 | 53.44683 | -1.59405 | 32025 ft | 458 kts | 278° |
| 2026-05-07 10:35 | 53.45643 | -1.70037 | 32016 ft | 459 kts | 277° |
| 2026-05-07 10:36 | 53.46589 | -1.80646 | 32008 ft | 459 kts | 277° |
| 2026-05-07 10:36 | 53.47527 | -1.91267 | 32006 ft | 459 kts | 277° |
| 2026-05-07 10:37 | 53.48452 | -2.01836 | 32003 ft | 459 kts | 277° |
| 2026-05-07 10:37 | 53.49372 | -2.12493 | 32007 ft | 458 kts | 277° |
| 2026-05-07 10:38 | 53.50283 | -2.23169 | 32015 ft | 458 kts | 277° |
| 2026-05-07 10:38 | 53.51185 | -2.33842 | 32019 ft | 459 kts | 277° |
| 2026-05-07 10:39 | 53.52078 | -2.44539 | 32021 ft | 458 kts | 277° |
| 2026-05-07 10:39 | 53.52965 | -2.55260 | 32021 ft | 458 kts | 277° |
| 2026-05-07 10:40 | 53.53831 | -2.65837 | 32020 ft | 459 kts | 276° |
| 2026-05-07 10:40 | 53.54695 | -2.76503 | 32021 ft | 459 kts | 276° |
| 2026-05-07 10:41 | 53.55545 | -2.87122 | 32014 ft | 458 kts | 276° |
| 2026-05-07 10:41 | 53.56395 | -2.97869 | 32018 ft | 457 kts | 276° |
| 2026-05-07 10:42 | 53.57246 | -3.08768 | 32020 ft | 457 kts | 276° |
| 2026-05-07 10:42 | 53.58085 | -3.19639 | 32022 ft | 457 kts | 276° |
| 2026-05-07 10:43 | 53.58895 | -3.30252 | 32022 ft | 458 kts | 276° |
| 2026-05-07 10:43 | 53.59695 | -3.40854 | 32018 ft | 457 kts | 276° |
| 2026-05-07 10:44 | 53.60489 | -3.51486 | 32015 ft | 457 kts | 276° |
| 2026-05-07 10:44 | 53.61267 | -3.62074 | 32012 ft | 457 kts | 276° |
| 2026-05-07 10:45 | 53.61855 | -3.72717 | 32009 ft | 457 kts | 272° |
| 2026-05-07 10:45 | 53.62294 | -3.83419 | 32006 ft | 456 kts | 272° |
| 2026-05-07 10:46 | 53.62723 | -3.94081 | 32004 ft | 457 kts | 272° |
| 2026-05-07 10:46 | 53.63146 | -4.04712 | 31997 ft | 456 kts | 272° |
| 2026-05-07 10:47 | 53.63561 | -4.15345 | 32036 ft | 458 kts | 272° |
| 2026-05-07 10:47 | 53.63765 | -4.20676 | 32225 ft | 457 kts | 272° |
| 2026-05-07 10:47 | 53.63964 | -4.25991 | 32432 ft | 456 kts | 272° |
| 2026-05-07 10:48 | 53.64166 | -4.31400 | 32615 ft | 455 kts | 272° |
| 2026-05-07 10:48 | 53.64362 | -4.36708 | 32783 ft | 455 kts | 272° |
| 2026-05-07 10:48 | 53.64556 | -4.42037 | 32948 ft | 455 kts | 272° |
| 2026-05-07 10:48 | 53.64748 | -4.47333 | 33087 ft | 455 kts | 272° |
| 2026-05-07 10:49 | 53.64935 | -4.52629 | 33253 ft | 455 kts | 272° |
| 2026-05-07 10:49 | 53.65121 | -4.57931 | 33404 ft | 455 kts | 272° |
| 2026-05-07 10:49 | 53.65305 | -4.63228 | 33548 ft | 455 kts | 272° |
| 2026-05-07 10:49 | 53.65487 | -4.68523 | 33700 ft | 454 kts | 271° |
| 2026-05-07 10:50 | 53.65666 | -4.73817 | 33864 ft | 454 kts | 271° |
| 2026-05-07 10:50 | 53.65842 | -4.79103 | 33974 ft | 454 kts | 271° |
| 2026-05-07 10:50 | 53.66189 | -4.89722 | 33976 ft | 454 kts | 271° |
| 2026-05-07 10:51 | 53.66533 | -5.00333 | 33978 ft | 455 kts | 271° |
| 2026-05-07 10:51 | 53.66866 | -5.10996 | 33980 ft | 454 kts | 270° |
| 2026-05-07 10:52 | 53.67182 | -5.21556 | 33975 ft | 454 kts | 270° |
| 2026-05-07 10:52 | 53.67490 | -5.32216 | 33972 ft | 454 kts | 270° |
| 2026-05-07 10:53 | 53.67784 | -5.42790 | 33972 ft | 454 kts | 270° |
| 2026-05-07 10:53 | 53.68188 | -5.53405 | 33973 ft | 455 kts | 274° |
| 2026-05-07 10:54 | 53.68849 | -5.64071 | 33967 ft | 455 kts | 274° |
| 2026-05-07 10:54 | 53.69508 | -5.74635 | 33967 ft | 455 kts | 273° |
| 2026-05-07 10:55 | 53.70156 | -5.85212 | 33962 ft | 455 kts | 273° |
| 2026-05-07 10:55 | 53.70792 | -5.95778 | 33962 ft | 455 kts | 273° |
| 2026-05-07 10:56 | 53.71418 | -6.06363 | 33965 ft | 454 kts | 272° |
| 2026-05-07 10:56 | 53.72037 | -6.16983 | 33960 ft | 454 kts | 272° |
| 2026-05-07 10:57 | 53.72643 | -6.27558 | 33962 ft | 454 kts | 272° |
| 2026-05-07 10:57 | 53.73240 | -6.38141 | 33960 ft | 454 kts | 272° |
| 2026-05-07 10:58 | 53.73827 | -6.48686 | 33952 ft | 454 kts | 272° |
| 2026-05-07 10:58 | 53.74407 | -6.59290 | 33950 ft | 454 kts | 272° |
| 2026-05-07 10:59 | 53.74973 | -6.69811 | 33944 ft | 453 kts | 271° |
| 2026-05-07 10:59 | 53.75533 | -6.80375 | 33946 ft | 452 kts | 271° |
| 2026-05-07 11:00 | 53.76086 | -6.90988 | 33940 ft | 451 kts | 271° |
| 2026-05-07 11:00 | 53.76622 | -7.01483 | 33938 ft | 451 kts | 271° |
| 2026-05-07 11:01 | 53.77153 | -7.12052 | 33934 ft | 452 kts | 271° |
| 2026-05-07 11:01 | 53.77672 | -7.22540 | 33931 ft | 451 kts | 271° |
| 2026-05-07 11:02 | 53.78202 | -7.33064 | 33929 ft | 451 kts | 272° |
| 2026-05-07 11:02 | 53.78840 | -7.43662 | 33929 ft | 451 kts | 272° |
| 2026-05-07 11:03 | 53.79472 | -7.54185 | 33927 ft | 450 kts | 272° |
| 2026-05-07 11:03 | 53.80086 | -7.64634 | 33926 ft | 450 kts | 272° |
| 2026-05-07 11:04 | 53.80692 | -7.75157 | 33924 ft | 449 kts | 271° |
| 2026-05-07 11:04 | 53.81284 | -7.85606 | 33923 ft | 448 kts | 272° |
| 2026-05-07 11:05 | 53.81869 | -7.96122 | 33922 ft | 448 kts | 271° |
| 2026-05-07 11:05 | 53.82439 | -8.06569 | 33921 ft | 448 kts | 271° |
| 2026-05-07 11:06 | 53.83004 | -8.17040 | 33921 ft | 448 kts | 272° |
| 2026-05-07 11:06 | 53.83558 | -8.27484 | 33918 ft | 448 kts | 271° |
| 2026-05-07 11:07 | 53.84106 | -8.38009 | 33918 ft | 447 kts | 271° |
| 2026-05-07 11:07 | 53.84641 | -8.48455 | 33918 ft | 447 kts | 271° |
| 2026-05-07 11:08 | 53.85167 | -8.58908 | 33915 ft | 447 kts | 271° |
| 2026-05-07 11:08 | 53.85685 | -8.69360 | 33917 ft | 446 kts | 271° |
| 2026-05-07 11:09 | 53.86192 | -8.79834 | 33915 ft | 446 kts | 271° |
| 2026-05-07 11:09 | 53.86690 | -8.90278 | 33914 ft | 445 kts | 271° |
| 2026-05-07 11:10 | 53.87174 | -9.00625 | 33915 ft | 444 kts | 271° |
| 2026-05-07 11:10 | 53.87655 | -9.11080 | 33917 ft | 444 kts | 271° |
| 2026-05-07 11:11 | 53.88127 | -9.21536 | 33914 ft | 444 kts | 271° |
| 2026-05-07 11:11 | 53.88584 | -9.31891 | 33907 ft | 444 kts | 271° |
| 2026-05-07 11:12 | 53.89034 | -9.42306 | 33906 ft | 443 kts | 271° |
| 2026-05-07 11:12 | 53.89476 | -9.52693 | 33900 ft | 442 kts | 271° |
| 2026-05-07 11:13 | 53.89905 | -9.63014 | 33894 ft | 441 kts | 271° |
| 2026-05-07 11:13 | 53.90324 | -9.73326 | 33903 ft | 440 kts | 270° |
| 2026-05-07 11:14 | 53.90735 | -9.83653 | 33901 ft | 439 kts | 270° |
| 2026-05-07 11:14 | 53.91136 | -9.93938 | 33900 ft | 439 kts | 270° |
| 2026-05-07 11:15 | 53.91531 | -10.04268 | 33898 ft | 438 kts | 270° |
| 2026-05-07 11:15 | 53.91913 | -10.14524 | 33893 ft | 437 kts | 270° |
| 2026-05-07 11:16 | 53.92285 | -10.24754 | 33893 ft | 437 kts | 270° |
| 2026-05-07 11:16 | 53.92649 | -10.35029 | 33897 ft | 436 kts | 270° |
| 2026-05-07 11:17 | 53.93002 | -10.45221 | 33893 ft | 437 kts | 270° |
| 2026-05-07 11:17 | 53.93350 | -10.55486 | 33895 ft | 436 kts | 270° |
| 2026-05-07 11:18 | 53.93687 | -10.65712 | 33899 ft | 435 kts | 269° |
| 2026-05-07 11:18 | 53.94018 | -10.75969 | 33894 ft | 434 kts | 269° |
| 2026-05-07 11:19 | 53.94337 | -10.86196 | 33892 ft | 434 kts | 269° |
| 2026-05-07 11:19 | 53.94645 | -10.96313 | 33894 ft | 433 kts | 269° |
| 2026-05-07 11:20 | 53.94946 | -11.06538 | 33903 ft | 433 kts | 269° |
| 2026-05-07 11:20 | 53.95240 | -11.16747 | 33901 ft | 432 kts | 269° |
| 2026-05-07 11:21 | 53.95522 | -11.26876 | 33897 ft | 433 kts | 269° |
| 2026-05-07 11:21 | 53.95797 | -11.37059 | 33901 ft | 432 kts | 269° |
| 2026-05-07 11:22 | 53.96064 | -11.47249 | 33906 ft | 431 kts | 269° |
| 2026-05-07 11:22 | 53.96320 | -11.57398 | 33903 ft | 430 kts | 269° |
| 2026-05-07 11:23 | 53.96568 | -11.67502 | 33902 ft | 429 kts | 268° |
| 2026-05-07 11:23 | 53.96806 | -11.77549 | 33906 ft | 428 kts | 268° |
| 2026-05-07 11:24 | 53.97036 | -11.87674 | 33900 ft | 428 kts | 268° |
| 2026-05-07 11:24 | 53.97256 | -11.97689 | 33901 ft | 427 kts | 268° |
| 2026-05-07 11:25 | 53.97469 | -12.07776 | 33900 ft | 428 kts | 268° |
| 2026-05-07 11:25 | 53.97672 | -12.17837 | 33900 ft | 428 kts | 268° |
| 2026-05-07 11:26 | 53.97868 | -12.27937 | 33901 ft | 427 kts | 268° |
| 2026-05-07 11:26 | 53.98054 | -12.37955 | 33900 ft | 426 kts | 268° |
| 2026-05-07 11:27 | 53.98234 | -12.48021 | 33901 ft | 425 kts | 268° |
| 2026-05-07 11:27 | 53.98403 | -12.58000 | 33898 ft | 425 kts | 268° |
| 2026-05-07 11:28 | 53.98565 | -12.68041 | 33896 ft | 425 kts | 267° |
| 2026-05-07 11:28 | 53.98716 | -12.77987 | 33897 ft | 425 kts | 267° |
| 2026-05-07 11:29 | 53.98861 | -12.88005 | 33902 ft | 423 kts | 267° |
| 2026-05-07 11:29 | 53.98996 | -12.97953 | 33901 ft | 423 kts | 267° |
| 2026-05-07 11:30 | 53.99123 | -13.07897 | 33901 ft | 422 kts | 267° |
| 2026-05-07 11:30 | 53.99240 | -13.17835 | 33911 ft | 422 kts | 267° |
| 2026-05-07 11:31 | 53.99353 | -13.27835 | 33910 ft | 422 kts | 267° |
| 2026-05-07 11:31 | 53.99454 | -13.37763 | 33899 ft | 422 kts | 267° |
| 2026-05-07 11:32 | 53.99593 | -13.52663 | 33899 ft | 422 kts | 267° |
| 2026-05-07 11:33 | 53.99676 | -13.62579 | 33916 ft | 421 kts | 266° |
| 2026-05-07 11:33 | 53.99748 | -13.72491 | 33912 ft | 420 kts | 266° |
| 2026-05-07 11:34 | 53.99814 | -13.82396 | 33922 ft | 419 kts | 266° |
| 2026-05-07 11:34 | 53.99871 | -13.92265 | 33917 ft | 418 kts | 266° |
| 2026-05-07 11:35 | 53.99920 | -14.02232 | 33931 ft | 417 kts | 266° |
| 2026-05-07 11:35 | 53.99961 | -14.12101 | 33907 ft | 416 kts | 266° |
| 2026-05-07 11:36 | 53.99994 | -14.21934 | 33903 ft | 417 kts | 266° |
| 2026-05-07 11:36 | 54.00018 | -14.31777 | 33911 ft | 418 kts | 266° |
| 2026-05-07 11:37 | 54.00036 | -14.41636 | 33908 ft | 418 kts | 266° |
| 2026-05-07 11:37 | 54.00046 | -14.51494 | 33911 ft | 418 kts | 266° |
| 2026-05-07 11:38 | 54.00045 | -14.61391 | 33882 ft | 417 kts | 266° |
| 2026-05-07 11:38 | 54.00040 | -14.71241 | 33907 ft | 417 kts | 266° |
| 2026-05-07 11:39 | 54.00024 | -14.81178 | 33878 ft | 424 kts | 266° |
| 2026-05-07 11:39 | 54.00000 | -14.91246 | 33922 ft | 428 kts | 266° |
| 2026-05-07 11:40 | 54.00008 | -15.01427 | 33887 ft | 430 kts | 268° |
| 2026-05-07 11:40 | 54.00200 | -15.11564 | 33894 ft | 430 kts | 268° |
| 2026-05-07 11:41 | 54.00394 | -15.21688 | 33911 ft | 431 kts | 268° |
| 2026-05-07 11:41 | 54.00583 | -15.31902 | 33909 ft | 431 kts | 268° |
| 2026-05-07 11:42 | 54.00763 | -15.42086 | 33908 ft | 430 kts | 268° |
| 2026-05-07 11:42 | 54.00937 | -15.52327 | 33918 ft | 430 kts | 268° |
| 2026-05-07 11:43 | 54.01100 | -15.62606 | 33919 ft | 429 kts | 269° |
| 2026-05-07 11:43 | 54.01253 | -15.72720 | 33913 ft | 428 kts | 268° |
| 2026-05-07 11:44 | 54.01397 | -15.82768 | 33913 ft | 428 kts | 268° |
| 2026-05-07 11:44 | 54.01532 | -15.92866 | 33921 ft | 428 kts | 268° |
| 2026-05-07 11:45 | 54.01660 | -16.02980 | 33927 ft | 427 kts | 268° |
| 2026-05-07 11:45 | 54.01779 | -16.13117 | 33935 ft | 427 kts | 268° |
| 2026-05-07 11:46 | 54.01891 | -16.23215 | 33917 ft | 427 kts | 268° |
| 2026-05-07 11:46 | 54.01991 | -16.33272 | 33931 ft | 428 kts | 268° |
| 2026-05-07 11:47 | 54.02085 | -16.43425 | 33916 ft | 427 kts | 268° |
| 2026-05-07 11:47 | 54.02170 | -16.53505 | 33932 ft | 428 kts | 268° |
| 2026-05-07 11:48 | 54.02246 | -16.63616 | 33930 ft | 429 kts | 268° |
| 2026-05-07 11:48 | 54.02314 | -16.73770 | 33938 ft | 429 kts | 268° |
| 2026-05-07 11:49 | 54.02374 | -16.83824 | 33934 ft | 428 kts | 268° |
| 2026-05-07 11:49 | 54.02425 | -16.93884 | 33947 ft | 427 kts | 268° |
| 2026-05-07 11:50 | 54.02467 | -17.03988 | 33954 ft | 427 kts | 268° |
| 2026-05-07 11:50 | 54.02501 | -17.14060 | 33952 ft | 427 kts | 268° |
| 2026-05-07 11:51 | 54.02528 | -17.24154 | 33957 ft | 428 kts | 268° |
| 2026-05-07 11:51 | 54.02546 | -17.34274 | 33957 ft | 428 kts | 268° |
| 2026-05-07 11:52 | 54.02556 | -17.44310 | 33962 ft | 427 kts | 268° |
| 2026-05-07 11:52 | 54.02556 | -17.54396 | 33947 ft | 427 kts | 268° |
| 2026-05-07 11:53 | 54.02548 | -17.64494 | 33971 ft | 426 kts | 268° |
| 2026-05-07 11:53 | 54.02531 | -17.74556 | 33966 ft | 426 kts | 268° |
| 2026-05-07 11:54 | 54.02506 | -17.84624 | 33974 ft | 425 kts | 268° |
| 2026-05-07 11:54 | 54.02473 | -17.94628 | 33965 ft | 426 kts | 268° |
| 2026-05-07 11:55 | 54.02433 | -18.04651 | 33975 ft | 425 kts | 268° |
| 2026-05-07 11:55 | 54.02382 | -18.14698 | 33977 ft | 424 kts | 268° |
| 2026-05-07 11:56 | 54.02324 | -18.24713 | 33993 ft | 424 kts | 268° |
| 2026-05-07 11:56 | 54.02258 | -18.34688 | 33986 ft | 424 kts | 268° |
| 2026-05-07 11:57 | 54.02184 | -18.44682 | 33993 ft | 424 kts | 268° |
| 2026-05-07 11:57 | 54.02101 | -18.54717 | 33971 ft | 424 kts | 268° |
| 2026-05-07 11:58 | 54.02010 | -18.64819 | 33972 ft | 425 kts | 268° |
| 2026-05-07 11:58 | 54.01907 | -18.75040 | 33978 ft | 426 kts | 267° |
| 2026-05-07 11:59 | 54.01799 | -18.85066 | 33978 ft | 426 kts | 268° |
| 2026-05-07 11:59 | 54.01683 | -18.95150 | 33990 ft | 426 kts | 268° |
| 2026-05-07 12:00 | 54.01559 | -19.05223 | 33990 ft | 425 kts | 267° |
| 2026-05-07 12:00 | 54.01425 | -19.15185 | 33991 ft | 425 kts | 268° |
| 2026-05-07 12:01 | 54.01282 | -19.25212 | 33986 ft | 425 kts | 268° |
| 2026-05-07 12:01 | 54.01132 | -19.35296 | 33992 ft | 426 kts | 268° |
| 2026-05-07 12:02 | 54.00974 | -19.45352 | 33987 ft | 427 kts | 268° |
| 2026-05-07 12:02 | 54.00808 | -19.55439 | 33991 ft | 428 kts | 268° |
| 2026-05-07 12:03 | 54.00633 | -19.65548 | 34005 ft | 428 kts | 267° |
| 2026-05-07 12:03 | 54.00450 | -19.75645 | 34009 ft | 428 kts | 267° |
| 2026-05-07 12:04 | 54.00258 | -19.85752 | 34007 ft | 429 kts | 268° |
| 2026-05-07 12:04 | 54.00055 | -19.95895 | 34023 ft | 429 kts | 268° |
| 2026-05-07 12:05 | 53.99617 | -20.06061 | 34027 ft | 430 kts | 264° |
| 2026-05-07 12:05 | 53.99034 | -20.16128 | 34023 ft | 430 kts | 264° |
| 2026-05-07 12:06 | 53.98440 | -20.26268 | 34031 ft | 431 kts | 264° |
| 2026-05-07 12:06 | 53.97839 | -20.36398 | 34024 ft | 432 kts | 265° |
| 2026-05-07 12:07 | 53.97229 | -20.46543 | 34036 ft | 433 kts | 265° |
| 2026-05-07 12:07 | 53.96613 | -20.56644 | 34023 ft | 433 kts | 265° |
| 2026-05-07 12:08 | 53.95983 | -20.66830 | 34026 ft | 434 kts | 264° |
| 2026-05-07 12:08 | 53.95348 | -20.76965 | 34021 ft | 434 kts | 264° |
| 2026-05-07 12:09 | 53.94704 | -20.87122 | 34034 ft | 435 kts | 264° |
| 2026-05-07 12:09 | 53.94046 | -20.97361 | 34038 ft | 436 kts | 264° |
| 2026-05-07 12:10 | 53.93378 | -21.07595 | 34039 ft | 437 kts | 264° |
| 2026-05-07 12:10 | 53.92701 | -21.17815 | 34033 ft | 437 kts | 264° |
| 2026-05-07 12:11 | 53.92016 | -21.28024 | 34047 ft | 436 kts | 265° |
| 2026-05-07 12:11 | 53.91325 | -21.38200 | 34032 ft | 436 kts | 265° |
| 2026-05-07 12:12 | 53.90624 | -21.48408 | 34055 ft | 436 kts | 265° |
| 2026-05-07 12:12 | 53.89910 | -21.58665 | 34053 ft | 436 kts | 265° |
| 2026-05-07 12:13 | 53.89193 | -21.68830 | 34050 ft | 437 kts | 264° |
| 2026-05-07 12:13 | 53.88460 | -21.79109 | 34034 ft | 439 kts | 264° |
| 2026-05-07 12:14 | 53.87725 | -21.89301 | 34052 ft | 439 kts | 264° |
| 2026-05-07 12:14 | 53.86972 | -21.99607 | 34054 ft | 440 kts | 264° |
| 2026-05-07 12:15 | 53.86216 | -22.09816 | 34055 ft | 440 kts | 264° |
| 2026-05-07 12:15 | 53.85448 | -22.20071 | 34061 ft | 440 kts | 264° |
| 2026-05-07 12:16 | 53.84672 | -22.30312 | 34059 ft | 439 kts | 265° |
| 2026-05-07 12:16 | 53.83890 | -22.40512 | 34057 ft | 438 kts | 265° |
| 2026-05-07 12:17 | 53.83093 | -22.50800 | 34085 ft | 440 kts | 265° |
| 2026-05-07 12:17 | 53.82295 | -22.60980 | 34272 ft | 439 kts | 265° |
| 2026-05-07 12:18 | 53.81486 | -22.71198 | 34417 ft | 440 kts | 264° |
| 2026-05-07 12:18 | 53.80663 | -22.81459 | 34580 ft | 441 kts | 264° |
| 2026-05-07 12:19 | 53.79831 | -22.91729 | 34729 ft | 441 kts | 264° |
| 2026-05-07 12:19 | 53.78997 | -23.01896 | 34885 ft | 441 kts | 264° |
| 2026-05-07 12:20 | 53.78149 | -23.12158 | 35041 ft | 441 kts | 264° |
| 2026-05-07 12:20 | 53.77291 | -23.22407 | 35198 ft | 440 kts | 264° |
| 2026-05-07 12:21 | 53.76433 | -23.32557 | 35333 ft | 440 kts | 264° |
| 2026-05-07 12:21 | 53.75560 | -23.42761 | 35458 ft | 441 kts | 265° |
| 2026-05-07 12:22 | 53.74674 | -23.53032 | 35573 ft | 441 kts | 265° |
| 2026-05-07 12:22 | 53.73788 | -23.63192 | 35685 ft | 441 kts | 265° |
| 2026-05-07 12:23 | 53.72886 | -23.73427 | 35783 ft | 442 kts | 264° |
| 2026-05-07 12:23 | 53.71970 | -23.83713 | 35882 ft | 443 kts | 264° |
| 2026-05-07 12:24 | 53.71055 | -23.93895 | 35986 ft | 443 kts | 264° |
| 2026-05-07 12:24 | 53.70124 | -24.04140 | 36080 ft | 443 kts | 264° |
| 2026-05-07 12:25 | 53.69188 | -24.14359 | 36100 ft | 444 kts | 264° |
| 2026-05-07 12:25 | 53.68234 | -24.24661 | 36096 ft | 444 kts | 264° |
| 2026-05-07 12:26 | 53.67279 | -24.34872 | 36098 ft | 444 kts | 264° |
| 2026-05-07 12:26 | 53.66310 | -24.45139 | 36090 ft | 444 kts | 264° |
| 2026-05-07 12:27 | 53.65339 | -24.55345 | 36096 ft | 444 kts | 265° |
| 2026-05-07 12:27 | 53.64352 | -24.65609 | 36094 ft | 444 kts | 264° |
| 2026-05-07 12:28 | 53.63358 | -24.75845 | 36101 ft | 444 kts | 264° |
| 2026-05-07 12:28 | 53.62353 | -24.86092 | 36097 ft | 444 kts | 264° |
| 2026-05-07 12:29 | 53.61346 | -24.96276 | 36092 ft | 444 kts | 264° |
| 2026-05-07 12:29 | 53.60327 | -25.06499 | 36109 ft | 444 kts | 264° |
| 2026-05-07 12:30 | 53.59299 | -25.16714 | 36100 ft | 444 kts | 264° |
| 2026-05-07 12:30 | 53.58261 | -25.26946 | 36120 ft | 444 kts | 264° |
| 2026-05-07 12:31 | 53.57216 | -25.37145 | 36100 ft | 444 kts | 265° |
| 2026-05-07 12:31 | 53.56164 | -25.47313 | 36115 ft | 444 kts | 265° |
| 2026-05-07 12:32 | 53.55099 | -25.57527 | 36111 ft | 444 kts | 265° |
| 2026-05-07 12:32 | 53.54027 | -25.67727 | 36110 ft | 444 kts | 264° |
| 2026-05-07 12:33 | 53.52401 | -25.83029 | 36113 ft | 444 kts | 264° |
| 2026-05-07 12:33 | 53.51306 | -25.93214 | 36118 ft | 444 kts | 264° |
| 2026-05-07 12:34 | 53.50199 | -26.03431 | 36124 ft | 444 kts | 264° |
| 2026-05-07 12:34 | 53.49092 | -26.13569 | 36120 ft | 444 kts | 264° |
| 2026-05-07 12:35 | 53.47966 | -26.23794 | 36119 ft | 443 kts | 264° |
| 2026-05-07 12:35 | 53.46839 | -26.33936 | 36126 ft | 443 kts | 265° |
| 2026-05-07 12:36 | 53.45708 | -26.44035 | 36128 ft | 443 kts | 265° |
| 2026-05-07 12:36 | 53.44567 | -26.54153 | 36135 ft | 442 kts | 265° |
| 2026-05-07 12:37 | 53.43422 | -26.64210 | 36129 ft | 442 kts | 265° |
| 2026-05-07 12:37 | 53.42269 | -26.74282 | 36134 ft | 442 kts | 264° |
| 2026-05-07 12:38 | 53.41099 | -26.84389 | 36137 ft | 442 kts | 264° |
| 2026-05-07 12:38 | 53.39929 | -26.94435 | 36132 ft | 442 kts | 264° |
| 2026-05-07 12:39 | 53.38751 | -27.04479 | 36144 ft | 442 kts | 265° |
| 2026-05-07 12:39 | 53.37558 | -27.14562 | 36155 ft | 442 kts | 265° |
| 2026-05-07 12:40 | 53.36367 | -27.24541 | 36150 ft | 440 kts | 265° |
| 2026-05-07 12:40 | 53.35164 | -27.34557 | 36152 ft | 440 kts | 265° |
| 2026-05-07 12:41 | 53.33953 | -27.44574 | 36166 ft | 439 kts | 265° |
| 2026-05-07 12:41 | 53.32741 | -27.54516 | 36168 ft | 439 kts | 265° |
| 2026-05-07 12:42 | 53.31517 | -27.64478 | 36164 ft | 437 kts | 265° |
| 2026-05-07 12:42 | 53.30290 | -27.74400 | 36182 ft | 438 kts | 265° |
| 2026-05-07 12:43 | 53.29048 | -27.84370 | 36202 ft | 440 kts | 265° |
| 2026-05-07 12:43 | 53.27805 | -27.94279 | 36177 ft | 439 kts | 265° |
| 2026-05-07 12:44 | 53.26543 | -28.04241 | 36184 ft | 437 kts | 265° |
| 2026-05-07 12:44 | 53.25284 | -28.14144 | 36192 ft | 436 kts | 265° |
| 2026-05-07 12:45 | 53.24020 | -28.24001 | 36192 ft | 436 kts | 266° |
| 2026-05-07 12:45 | 53.22748 | -28.33852 | 36178 ft | 435 kts | 266° |
| 2026-05-07 12:46 | 53.21473 | -28.43674 | 36198 ft | 437 kts | 266° |
| 2026-05-07 12:46 | 53.20182 | -28.53524 | 36188 ft | 436 kts | 266° |
| 2026-05-07 12:47 | 53.18883 | -28.63375 | 36188 ft | 436 kts | 266° |
| 2026-05-07 12:47 | 53.17575 | -28.73246 | 36188 ft | 437 kts | 265° |
| 2026-05-07 12:48 | 53.16259 | -28.83084 | 36197 ft | 436 kts | 266° |
| 2026-05-07 12:48 | 53.14932 | -28.92940 | 36203 ft | 434 kts | 266° |
| 2026-05-07 12:49 | 53.13613 | -29.02682 | 36198 ft | 434 kts | 266° |
| 2026-05-07 12:49 | 53.12279 | -29.12480 | 36200 ft | 435 kts | 266° |
| 2026-05-07 12:50 | 53.10937 | -29.22262 | 36197 ft | 435 kts | 266° |
| 2026-05-07 12:50 | 53.10268 | -29.27122 | 35879 ft | 434 kts | 266° |
| 2026-05-07 12:50 | 53.09588 | -29.32025 | 36025 ft | 432 kts | 266° |
| 2026-05-07 12:51 | 53.08241 | -29.41732 | 36161 ft | 434 kts | 266° |
| 2026-05-07 12:51 | 53.06873 | -29.51534 | 36192 ft | 438 kts | 266° |
| 2026-05-07 12:52 | 53.05485 | -29.61387 | 36193 ft | 438 kts | 266° |
| 2026-05-07 12:52 | 53.04098 | -29.71160 | 36190 ft | 437 kts | 265° |
| 2026-05-07 12:53 | 53.02706 | -29.80945 | 36189 ft | 437 kts | 265° |
| 2026-05-07 12:53 | 53.01300 | -29.90754 | 36195 ft | 437 kts | 265° |
| 2026-05-07 12:54 | 52.99927 | -30.00570 | 36200 ft | 433 kts | 268° |
| 2026-05-07 12:54 | 52.98875 | -30.10345 | 36208 ft | 432 kts | 269° |
| 2026-05-07 12:55 | 52.97842 | -30.20136 | 36227 ft | 432 kts | 269° |
| 2026-05-07 12:55 | 52.96804 | -30.29942 | 36222 ft | 432 kts | 269° |
| 2026-05-07 12:56 | 52.95754 | -30.39776 | 36228 ft | 433 kts | 269° |
| 2026-05-07 12:56 | 52.94696 | -30.49595 | 36236 ft | 431 kts | 269° |
| 2026-05-07 12:57 | 52.93639 | -30.59323 | 36226 ft | 431 kts | 269° |
| 2026-05-07 12:57 | 52.92574 | -30.69053 | 36222 ft | 431 kts | 268° |
| 2026-05-07 12:58 | 52.91498 | -30.78815 | 36240 ft | 432 kts | 268° |
| 2026-05-07 12:58 | 52.90410 | -30.88607 | 36230 ft | 432 kts | 268° |
| 2026-05-07 12:59 | 52.89316 | -30.98361 | 36224 ft | 433 kts | 269° |
| 2026-05-07 12:59 | 52.88210 | -31.08168 | 36222 ft | 432 kts | 268° |
| 2026-05-07 13:00 | 52.87098 | -31.17944 | 36218 ft | 433 kts | 269° |
| 2026-05-07 13:00 | 52.85979 | -31.27702 | 36222 ft | 433 kts | 268° |
| 2026-05-07 13:01 | 52.84850 | -31.37454 | 36227 ft | 432 kts | 268° |
| 2026-05-07 13:01 | 52.83717 | -31.47193 | 36218 ft | 432 kts | 268° |
| 2026-05-07 13:02 | 52.82573 | -31.56957 | 36225 ft | 434 kts | 268° |
| 2026-05-07 13:02 | 52.81416 | -31.66757 | 36230 ft | 434 kts | 268° |
| 2026-05-07 13:03 | 52.80257 | -31.76466 | 36235 ft | 435 kts | 268° |
| 2026-05-07 13:03 | 52.79081 | -31.86281 | 36238 ft | 436 kts | 268° |
| 2026-05-07 13:04 | 52.77894 | -31.96102 | 36242 ft | 436 kts | 267° |
| 2026-05-07 13:04 | 52.76706 | -32.05849 | 36236 ft | 435 kts | 267° |
| 2026-05-07 13:05 | 52.75514 | -32.15568 | 36234 ft | 434 kts | 267° |
| 2026-05-07 13:05 | 52.74304 | -32.25377 | 36236 ft | 435 kts | 267° |
| 2026-05-07 13:06 | 52.73088 | -32.35138 | 36244 ft | 435 kts | 267° |
| 2026-05-07 13:06 | 52.71871 | -32.44859 | 36237 ft | 435 kts | 267° |
| 2026-05-07 13:07 | 52.70640 | -32.54598 | 36243 ft | 436 kts | 268° |
| 2026-05-07 13:07 | 52.69404 | -32.64339 | 36241 ft | 436 kts | 267° |
| 2026-05-07 13:08 | 52.68151 | -32.74125 | 36235 ft | 436 kts | 266° |
| 2026-05-07 13:08 | 52.66895 | -32.83871 | 36244 ft | 438 kts | 266° |
| 2026-05-07 13:09 | 52.65622 | -32.93686 | 36243 ft | 437 kts | 266° |
| 2026-05-07 13:09 | 52.64346 | -33.03441 | 36252 ft | 437 kts | 266° |
| 2026-05-07 13:10 | 52.63059 | -33.13229 | 36254 ft | 438 kts | 266° |
| 2026-05-07 13:10 | 52.61768 | -33.22974 | 36242 ft | 437 kts | 267° |
| 2026-05-07 13:11 | 52.60466 | -33.32736 | 36242 ft | 438 kts | 267° |
| 2026-05-07 13:11 | 52.59156 | -33.42487 | 36240 ft | 438 kts | 267° |
| 2026-05-07 13:12 | 52.57835 | -33.52258 | 36243 ft | 437 kts | 267° |
| 2026-05-07 13:12 | 52.56514 | -33.61972 | 36244 ft | 437 kts | 267° |
| 2026-05-07 13:13 | 52.55178 | -33.71727 | 36246 ft | 439 kts | 266° |
| 2026-05-07 13:13 | 52.53838 | -33.81435 | 36250 ft | 438 kts | 266° |
| 2026-05-07 13:14 | 52.52486 | -33.91178 | 36246 ft | 438 kts | 266° |
| 2026-05-07 13:14 | 52.51131 | -34.00876 | 36247 ft | 438 kts | 266° |
| 2026-05-07 13:15 | 52.49767 | -34.10600 | 36249 ft | 439 kts | 266° |
| 2026-05-07 13:15 | 52.48389 | -34.20319 | 36250 ft | 438 kts | 266° |
| 2026-05-07 13:16 | 52.47000 | -34.30076 | 36246 ft | 440 kts | 266° |
| 2026-05-07 13:16 | 52.45604 | -34.39819 | 36249 ft | 440 kts | 266° |
| 2026-05-07 13:17 | 52.44204 | -34.49529 | 36251 ft | 439 kts | 266° |
| 2026-05-07 13:17 | 52.42786 | -34.59288 | 36252 ft | 438 kts | 266° |
| 2026-05-07 13:18 | 52.41370 | -34.68976 | 36250 ft | 439 kts | 265° |
| 2026-05-07 13:18 | 52.39942 | -34.78718 | 36245 ft | 441 kts | 265° |
| 2026-05-07 13:19 | 52.38506 | -34.88413 | 36248 ft | 439 kts | 265° |
| 2026-05-07 13:19 | 52.37059 | -34.98136 | 36252 ft | 439 kts | 265° |
| 2026-05-07 13:20 | 52.35613 | -35.07782 | 36257 ft | 439 kts | 265° |
| 2026-05-07 13:20 | 52.34165 | -35.17422 | 36262 ft | 439 kts | 265° |
| 2026-05-07 13:21 | 52.32689 | -35.27160 | 36259 ft | 440 kts | 265° |
| 2026-05-07 13:21 | 52.31218 | -35.36800 | 36264 ft | 440 kts | 265° |
| 2026-05-07 13:22 | 52.29732 | -35.46488 | 36268 ft | 439 kts | 265° |
| 2026-05-07 13:22 | 52.28244 | -35.56121 | 36271 ft | 440 kts | 265° |
| 2026-05-07 13:23 | 52.26742 | -35.65808 | 36266 ft | 440 kts | 264° |
| 2026-05-07 13:23 | 52.25238 | -35.75445 | 36269 ft | 441 kts | 264° |
| 2026-05-07 13:24 | 52.23712 | -35.85160 | 36272 ft | 441 kts | 264° |
| 2026-05-07 13:24 | 52.22183 | -35.94834 | 36275 ft | 441 kts | 264° |
| 2026-05-07 13:25 | 52.20645 | -36.04509 | 36266 ft | 442 kts | 264° |
| 2026-05-07 13:25 | 52.19088 | -36.14255 | 36266 ft | 441 kts | 264° |
| 2026-05-07 13:26 | 52.17528 | -36.23953 | 36266 ft | 442 kts | 264° |
| 2026-05-07 13:26 | 52.15971 | -36.33572 | 36267 ft | 440 kts | 264° |
| 2026-05-07 13:27 | 52.14398 | -36.43251 | 36267 ft | 441 kts | 264° |
| 2026-05-07 13:27 | 52.12827 | -36.52848 | 36268 ft | 441 kts | 264° |
| 2026-05-07 13:28 | 52.11245 | -36.62470 | 36264 ft | 441 kts | 263° |
| 2026-05-07 13:28 | 52.09641 | -36.72165 | 36266 ft | 443 kts | 263° |
| 2026-05-07 13:29 | 52.08035 | -36.81817 | 36267 ft | 444 kts | 263° |
| 2026-05-07 13:29 | 52.06416 | -36.91489 | 36268 ft | 444 kts | 263° |
| 2026-05-07 13:30 | 52.04781 | -37.01213 | 36268 ft | 443 kts | 263° |
| 2026-05-07 13:30 | 52.03147 | -37.10868 | 36269 ft | 443 kts | 263° |
| 2026-05-07 13:31 | 52.01508 | -37.20494 | 36267 ft | 443 kts | 263° |
| 2026-05-07 13:31 | 51.99862 | -37.30107 | 36265 ft | 442 kts | 263° |
| 2026-05-07 13:32 | 51.98219 | -37.39667 | 36269 ft | 442 kts | 263° |
| 2026-05-07 13:32 | 51.96548 | -37.49334 | 36267 ft | 442 kts | 262° |
| 2026-05-07 13:33 | 51.94884 | -37.58900 | 36270 ft | 442 kts | 263° |
| 2026-05-07 13:33 | 51.93211 | -37.68461 | 36272 ft | 442 kts | 262° |
| 2026-05-07 13:34 | 51.90678 | -37.82855 | 36268 ft | 442 kts | 262° |
| 2026-05-07 13:35 | 51.88990 | -37.92387 | 36266 ft | 441 kts | 261° |
| 2026-05-07 13:35 | 51.87288 | -38.01940 | 36273 ft | 440 kts | 262° |
| 2026-05-07 13:36 | 51.85591 | -38.11405 | 36277 ft | 440 kts | 261° |
| 2026-05-07 13:36 | 51.83872 | -38.20966 | 36274 ft | 441 kts | 261° |
| 2026-05-07 13:37 | 51.82154 | -38.30463 | 36273 ft | 442 kts | 261° |
| 2026-05-07 13:37 | 51.80423 | -38.39971 | 36273 ft | 441 kts | 261° |
| 2026-05-07 13:38 | 51.78683 | -38.49480 | 36270 ft | 441 kts | 261° |
| 2026-05-07 13:38 | 51.76941 | -38.58966 | 36268 ft | 441 kts | 261° |
| 2026-05-07 13:39 | 51.75189 | -38.68446 | 36263 ft | 442 kts | 260° |
| 2026-05-07 13:39 | 51.73431 | -38.77918 | 36261 ft | 442 kts | 260° |
| 2026-05-07 13:40 | 51.71663 | -38.87390 | 36265 ft | 442 kts | 260° |
| 2026-05-07 13:40 | 51.69883 | -38.96875 | 36267 ft | 443 kts | 260° |
| 2026-05-07 13:41 | 51.68097 | -39.06345 | 36268 ft | 442 kts | 260° |
| 2026-05-07 13:41 | 51.66313 | -39.15762 | 36267 ft | 442 kts | 260° |
| 2026-05-07 13:42 | 51.64522 | -39.25175 | 36266 ft | 443 kts | 259° |
| 2026-05-07 13:42 | 51.62711 | -39.34632 | 36263 ft | 442 kts | 259° |
| 2026-05-07 13:43 | 51.60899 | -39.44059 | 36262 ft | 443 kts | 259° |
| 2026-05-07 13:43 | 51.59076 | -39.53494 | 36260 ft | 443 kts | 259° |
| 2026-05-07 13:44 | 51.57249 | -39.62905 | 36257 ft | 442 kts | 259° |
| 2026-05-07 13:44 | 51.55421 | -39.72285 | 36256 ft | 442 kts | 258° |
| 2026-05-07 13:45 | 51.53577 | -39.81702 | 36254 ft | 441 kts | 258° |
| 2026-05-07 13:45 | 51.51734 | -39.91050 | 36251 ft | 442 kts | 258° |
| 2026-05-07 13:46 | 51.50042 | -40.00470 | 36249 ft | 439 kts | 263° |
| 2026-05-07 13:46 | 51.48906 | -40.09994 | 36248 ft | 436 kts | 266° |
| 2026-05-07 13:47 | 51.47904 | -40.19547 | 36248 ft | 435 kts | 266° |
| 2026-05-07 13:47 | 51.46893 | -40.29132 | 36250 ft | 435 kts | 266° |
| 2026-05-07 13:48 | 51.45879 | -40.38657 | 36250 ft | 436 kts | 266° |
| 2026-05-07 13:48 | 51.44855 | -40.48204 | 36471 ft | 436 kts | 266° |
| 2026-05-07 13:48 | 51.44344 | -40.52948 | 36318 ft | 434 kts | 266° |
| 2026-05-07 13:49 | 51.43832 | -40.57676 | 36281 ft | 434 kts | 266° |
| 2026-05-07 13:49 | 51.42793 | -40.67211 | 36256 ft | 435 kts | 265° |
| 2026-05-07 13:50 | 51.41749 | -40.76717 | 36082 ft | 434 kts | 265° |
| 2026-05-07 13:50 | 51.41223 | -40.81467 | 36291 ft | 436 kts | 265° |
| 2026-05-07 13:50 | 51.40692 | -40.86261 | 36258 ft | 435 kts | 265° |
| 2026-05-07 13:51 | 51.39633 | -40.95759 | 36244 ft | 436 kts | 265° |
| 2026-05-07 13:51 | 51.38558 | -41.05318 | 36245 ft | 436 kts | 265° |
| 2026-05-07 13:52 | 51.37476 | -41.14867 | 36241 ft | 436 kts | 264° |
| 2026-05-07 13:52 | 51.36389 | -41.24383 | 36234 ft | 435 kts | 264° |
| 2026-05-07 13:53 | 51.35295 | -41.33897 | 36230 ft | 436 kts | 264° |
| 2026-05-07 13:53 | 51.34189 | -41.43438 | 36229 ft | 436 kts | 264° |
| 2026-05-07 13:54 | 51.33073 | -41.52986 | 36228 ft | 436 kts | 264° |
| 2026-05-07 13:54 | 51.31956 | -41.62482 | 36228 ft | 436 kts | 264° |
| 2026-05-07 13:55 | 51.30831 | -41.71987 | 36228 ft | 437 kts | 263° |
| 2026-05-07 13:55 | 51.29694 | -41.81512 | 36229 ft | 437 kts | 263° |
| 2026-05-07 13:56 | 51.28545 | -41.91071 | 36230 ft | 437 kts | 263° |
| 2026-05-07 13:56 | 51.27391 | -42.00588 | 36228 ft | 437 kts | 263° |
| 2026-05-07 13:57 | 51.26230 | -42.10104 | 36226 ft | 437 kts | 263° |
| 2026-05-07 13:57 | 51.25068 | -42.19567 | 36227 ft | 438 kts | 263° |
| 2026-05-07 13:58 | 51.23893 | -42.29074 | 36222 ft | 438 kts | 263° |
| 2026-05-07 13:58 | 51.22709 | -42.38571 | 36224 ft | 438 kts | 263° |
| 2026-05-07 13:59 | 51.21518 | -42.48064 | 36222 ft | 438 kts | 263° |
| 2026-05-07 13:59 | 51.20316 | -42.57570 | 36221 ft | 438 kts | 263° |
| 2026-05-07 14:00 | 51.19111 | -42.67045 | 36225 ft | 438 kts | 262° |
| 2026-05-07 14:00 | 51.17896 | -42.76535 | 36223 ft | 439 kts | 262° |
| 2026-05-07 14:01 | 51.16669 | -42.86044 | 36224 ft | 439 kts | 262° |
| 2026-05-07 14:01 | 51.15428 | -42.95599 | 36225 ft | 439 kts | 262° |
| 2026-05-07 14:02 | 51.14194 | -43.05042 | 36226 ft | 439 kts | 262° |
| 2026-05-07 14:02 | 51.12937 | -43.14588 | 36227 ft | 438 kts | 262° |
| 2026-05-07 14:03 | 51.11688 | -43.24015 | 36227 ft | 439 kts | 262° |
| 2026-05-07 14:03 | 51.10417 | -43.33544 | 36227 ft | 438 kts | 262° |
| 2026-05-07 14:04 | 51.09150 | -43.42995 | 36228 ft | 439 kts | 262° |
| 2026-05-07 14:04 | 51.07872 | -43.52447 | 36227 ft | 439 kts | 262° |
| 2026-05-07 14:05 | 51.06582 | -43.61922 | 36227 ft | 439 kts | 261° |
| 2026-05-07 14:05 | 51.05293 | -43.71337 | 36229 ft | 439 kts | 261° |
| 2026-05-07 14:06 | 51.03990 | -43.80796 | 36230 ft | 439 kts | 261° |
| 2026-05-07 14:06 | 51.02689 | -43.90181 | 36228 ft | 438 kts | 261° |
| 2026-05-07 14:07 | 51.01369 | -43.99639 | 36229 ft | 438 kts | 260° |
| 2026-05-07 14:07 | 51.00052 | -44.09006 | 36225 ft | 438 kts | 261° |
| 2026-05-07 14:08 | 50.98722 | -44.18418 | 36224 ft | 439 kts | 261° |
| 2026-05-07 14:08 | 50.97384 | -44.27835 | 36221 ft | 439 kts | 260° |
| 2026-05-07 14:09 | 50.96027 | -44.37316 | 36220 ft | 440 kts | 260° |
| 2026-05-07 14:09 | 50.94672 | -44.46731 | 36213 ft | 439 kts | 260° |
| 2026-05-07 14:10 | 50.93314 | -44.56098 | 36205 ft | 439 kts | 260° |
| 2026-05-07 14:10 | 50.91942 | -44.65518 | 36209 ft | 439 kts | 259° |
| 2026-05-07 14:11 | 50.90568 | -44.74875 | 36208 ft | 439 kts | 259° |
| 2026-05-07 14:11 | 50.89184 | -44.84258 | 36211 ft | 440 kts | 259° |
| 2026-05-07 14:12 | 50.87783 | -44.93694 | 36210 ft | 441 kts | 259° |
| 2026-05-07 14:12 | 50.86379 | -45.03112 | 36209 ft | 441 kts | 259° |
| 2026-05-07 14:13 | 50.84965 | -45.12523 | 36209 ft | 440 kts | 259° |
| 2026-05-07 14:13 | 50.83551 | -45.21877 | 36209 ft | 440 kts | 259° |
| 2026-05-07 14:14 | 50.82124 | -45.31265 | 36213 ft | 440 kts | 259° |
| 2026-05-07 14:14 | 50.80691 | -45.40634 | 36214 ft | 439 kts | 259° |
| 2026-05-07 14:15 | 50.79254 | -45.49979 | 36205 ft | 440 kts | 259° |
| 2026-05-07 14:15 | 50.77814 | -45.59295 | 36212 ft | 439 kts | 259° |
| 2026-05-07 14:16 | 50.76357 | -45.68661 | 36211 ft | 439 kts | 258° |
| 2026-05-07 14:16 | 50.74894 | -45.78006 | 36211 ft | 439 kts | 258° |
| 2026-05-07 14:17 | 50.73435 | -45.87275 | 36211 ft | 439 kts | 258° |
| 2026-05-07 14:17 | 50.71947 | -45.96676 | 36212 ft | 439 kts | 258° |
| 2026-05-07 14:18 | 50.70467 | -46.05983 | 36211 ft | 439 kts | 258° |
| 2026-05-07 14:18 | 50.68979 | -46.15284 | 36216 ft | 438 kts | 258° |
| 2026-05-07 14:19 | 50.67475 | -46.24621 | 36214 ft | 438 kts | 258° |
| 2026-05-07 14:19 | 50.65977 | -46.33877 | 36211 ft | 438 kts | 258° |
| 2026-05-07 14:20 | 50.64469 | -46.43141 | 36215 ft | 438 kts | 258° |
| 2026-05-07 14:20 | 50.62956 | -46.52387 | 36212 ft | 437 kts | 258° |
| 2026-05-07 14:21 | 50.61441 | -46.61602 | 36214 ft | 438 kts | 258° |
| 2026-05-07 14:21 | 50.59913 | -46.70836 | 36214 ft | 438 kts | 257° |
| 2026-05-07 14:22 | 50.58349 | -46.80239 | 36216 ft | 439 kts | 257° |
| 2026-05-07 14:22 | 50.56779 | -46.89622 | 36214 ft | 438 kts | 257° |
| 2026-05-07 14:23 | 50.55200 | -46.99013 | 36216 ft | 437 kts | 257° |
| 2026-05-07 14:23 | 50.53635 | -47.08261 | 36217 ft | 436 kts | 257° |
| 2026-05-07 14:24 | 50.52085 | -47.17376 | 36219 ft | 435 kts | 257° |
| 2026-05-07 14:24 | 50.50520 | -47.26534 | 36217 ft | 435 kts | 257° |
| 2026-05-07 14:25 | 50.48951 | -47.35677 | 36214 ft | 434 kts | 256° |
| 2026-05-07 14:25 | 50.47379 | -47.44781 | 36213 ft | 433 kts | 256° |
| 2026-05-07 14:26 | 50.45804 | -47.53854 | 36210 ft | 432 kts | 256° |
| 2026-05-07 14:26 | 50.44221 | -47.62923 | 36213 ft | 432 kts | 256° |
| 2026-05-07 14:27 | 50.42639 | -47.71946 | 36216 ft | 432 kts | 256° |
| 2026-05-07 14:27 | 50.41039 | -47.81024 | 36216 ft | 430 kts | 255° |
| 2026-05-07 14:28 | 50.39451 | -47.89996 | 36211 ft | 429 kts | 255° |
| 2026-05-07 14:28 | 50.37863 | -47.98920 | 36212 ft | 428 kts | 255° |
| 2026-05-07 14:29 | 50.36260 | -48.07873 | 36205 ft | 428 kts | 255° |
| 2026-05-07 14:29 | 50.34652 | -48.16809 | 36209 ft | 428 kts | 255° |
| 2026-05-07 14:30 | 50.33033 | -48.25773 | 36208 ft | 428 kts | 255° |
| 2026-05-07 14:30 | 50.31417 | -48.34681 | 36211 ft | 428 kts | 255° |
| 2026-05-07 14:31 | 50.29791 | -48.43600 | 36210 ft | 427 kts | 255° |
| 2026-05-07 14:31 | 50.28163 | -48.52469 | 36208 ft | 426 kts | 255° |
| 2026-05-07 14:32 | 50.26530 | -48.61332 | 36203 ft | 426 kts | 255° |
| 2026-05-07 14:32 | 50.24897 | -48.70153 | 36199 ft | 425 kts | 254° |
| 2026-05-07 14:33 | 50.23253 | -48.78992 | 36195 ft | 425 kts | 254° |
| 2026-05-07 14:33 | 50.21597 | -48.87856 | 36187 ft | 425 kts | 254° |
| 2026-05-07 14:34 | 50.19942 | -48.96670 | 36185 ft | 425 kts | 254° |
| 2026-05-07 14:34 | 50.18286 | -49.05451 | 36185 ft | 424 kts | 253° |
| 2026-05-07 14:35 | 50.16628 | -49.14207 | 36184 ft | 423 kts | 253° |
| 2026-05-07 14:35 | 50.14952 | -49.23005 | 36182 ft | 422 kts | 253° |
| 2026-05-07 14:36 | 50.13284 | -49.31726 | 36184 ft | 422 kts | 253° |
| 2026-05-07 14:36 | 50.11607 | -49.40456 | 36186 ft | 422 kts | 253° |
| 2026-05-07 14:37 | 50.09922 | -49.49179 | 36186 ft | 422 kts | 253° |
| 2026-05-07 14:37 | 50.07395 | -49.62215 | 36185 ft | 421 kts | 253° |
| 2026-05-07 14:38 | 50.05705 | -49.70875 | 36191 ft | 421 kts | 252° |
| 2026-05-07 14:38 | 50.03997 | -49.79592 | 36193 ft | 422 kts | 252° |
| 2026-05-07 14:39 | 50.02295 | -49.88254 | 36193 ft | 422 kts | 251° |
| 2026-05-07 14:39 | 50.00577 | -49.96936 | 36187 ft | 421 kts | 251° |
| 2026-05-07 14:40 | 49.98641 | -50.05475 | 36192 ft | 421 kts | 248° |
| 2026-05-07 14:40 | 49.96602 | -50.13956 | 36184 ft | 420 kts | 248° |
| 2026-05-07 14:41 | 49.94556 | -50.22447 | 36181 ft | 420 kts | 248° |
| 2026-05-07 14:41 | 49.92509 | -50.30917 | 36177 ft | 421 kts | 248° |
| 2026-05-07 14:42 | 49.90452 | -50.39386 | 36177 ft | 421 kts | 248° |
| 2026-05-07 14:42 | 49.88392 | -50.47842 | 36177 ft | 420 kts | 248° |
| 2026-05-07 14:43 | 49.86330 | -50.56271 | 36176 ft | 421 kts | 248° |
| 2026-05-07 14:43 | 49.84269 | -50.64664 | 36176 ft | 420 kts | 248° |
| 2026-05-07 14:44 | 49.82191 | -50.73095 | 36177 ft | 419 kts | 247° |
| 2026-05-07 14:44 | 49.80120 | -50.81466 | 36179 ft | 419 kts | 247° |
| 2026-05-07 14:45 | 49.78035 | -50.89861 | 36175 ft | 418 kts | 247° |
| 2026-05-07 14:45 | 49.75958 | -50.98195 | 36178 ft | 418 kts | 246° |
| 2026-05-07 14:46 | 49.73862 | -51.06574 | 36175 ft | 418 kts | 246° |
| 2026-05-07 14:46 | 49.71771 | -51.14899 | 36175 ft | 419 kts | 246° |
| 2026-05-07 14:47 | 49.69665 | -51.23258 | 36169 ft | 418 kts | 246° |
| 2026-05-07 14:47 | 49.67565 | -51.31554 | 36171 ft | 418 kts | 246° |
| 2026-05-07 14:48 | 49.65444 | -51.39916 | 36167 ft | 418 kts | 246° |
| 2026-05-07 14:48 | 49.63338 | -51.48180 | 36169 ft | 416 kts | 246° |
| 2026-05-07 14:49 | 49.61219 | -51.56466 | 36168 ft | 416 kts | 246° |
| 2026-05-07 14:49 | 49.59098 | -51.64733 | 36162 ft | 415 kts | 246° |
| 2026-05-07 14:50 | 49.56960 | -51.73038 | 36162 ft | 415 kts | 245° |
| 2026-05-07 14:50 | 49.54837 | -51.81257 | 36160 ft | 414 kts | 245° |
| 2026-05-07 14:51 | 49.52718 | -51.89441 | 36160 ft | 415 kts | 245° |
| 2026-05-07 14:51 | 49.50580 | -51.97650 | 36159 ft | 415 kts | 245° |
| 2026-05-07 14:52 | 49.48264 | -52.05733 | 36157 ft | 413 kts | 243° |
| 2026-05-07 14:52 | 49.45908 | -52.13719 | 36150 ft | 412 kts | 243° |
| 2026-05-07 14:53 | 49.43548 | -52.21714 | 36151 ft | 413 kts | 243° |
| 2026-05-07 14:53 | 49.41167 | -52.29747 | 36151 ft | 413 kts | 243° |
| 2026-05-07 14:54 | 49.38807 | -52.37686 | 36149 ft | 412 kts | 243° |
| 2026-05-07 14:54 | 49.36424 | -52.45681 | 36146 ft | 413 kts | 243° |
| 2026-05-07 14:55 | 49.34034 | -52.53672 | 36143 ft | 414 kts | 243° |
| 2026-05-07 14:55 | 49.31644 | -52.61636 | 36141 ft | 414 kts | 243° |
| 2026-05-07 14:56 | 49.29240 | -52.69616 | 36141 ft | 414 kts | 242° |
| 2026-05-07 14:56 | 49.26833 | -52.77583 | 36141 ft | 414 kts | 242° |
| 2026-05-07 14:57 | 49.24415 | -52.85566 | 36136 ft | 414 kts | 242° |
| 2026-05-07 14:57 | 49.21989 | -52.93547 | 36136 ft | 414 kts | 242° |
| 2026-05-07 14:58 | 49.19574 | -53.01466 | 36135 ft | 413 kts | 242° |
| 2026-05-07 14:58 | 49.17151 | -53.09384 | 36138 ft | 414 kts | 242° |
| 2026-05-07 14:59 | 49.14718 | -53.17309 | 36135 ft | 413 kts | 242° |
| 2026-05-07 14:59 | 49.12278 | -53.25231 | 36129 ft | 413 kts | 242° |
| 2026-05-07 15:00 | 49.09846 | -53.33103 | 36123 ft | 412 kts | 242° |
| 2026-05-07 15:00 | 49.07407 | -53.40978 | 36124 ft | 412 kts | 241° |
| 2026-05-07 15:01 | 49.04954 | -53.48866 | 36110 ft | 412 kts | 241° |
| 2026-05-07 15:01 | 49.02508 | -53.56703 | 36116 ft | 413 kts | 241° |
| 2026-05-07 15:02 | 49.00054 | -53.64549 | 36107 ft | 412 kts | 241° |
| 2026-05-07 15:02 | 48.97583 | -53.72422 | 36107 ft | 410 kts | 240° |
| 2026-05-07 15:03 | 48.95134 | -53.80199 | 36098 ft | 409 kts | 240° |
| 2026-05-07 15:03 | 48.92675 | -53.87984 | 36105 ft | 409 kts | 240° |
| 2026-05-07 15:04 | 48.91463 | -53.91817 | 35899 ft | 408 kts | 240° |
| 2026-05-07 15:04 | 48.90236 | -53.95690 | 36016 ft | 408 kts | 240° |
| 2026-05-07 15:04 | 48.87759 | -54.03477 | 36082 ft | 409 kts | 240° |
| 2026-05-07 15:05 | 48.85305 | -54.11175 | 36090 ft | 408 kts | 240° |
| 2026-05-07 15:05 | 48.82830 | -54.18909 | 36091 ft | 409 kts | 240° |
| 2026-05-07 15:06 | 48.80347 | -54.26651 | 36090 ft | 407 kts | 240° |
| 2026-05-07 15:06 | 48.77877 | -54.34328 | 36089 ft | 407 kts | 240° |
| 2026-05-07 15:07 | 48.75388 | -54.42038 | 36078 ft | 408 kts | 239° |
| 2026-05-07 15:07 | 48.72889 | -54.49759 | 36076 ft | 409 kts | 240° |
| 2026-05-07 15:08 | 48.70397 | -54.57432 | 36064 ft | 409 kts | 240° |
| 2026-05-07 15:08 | 48.67887 | -54.65134 | 36065 ft | 409 kts | 239° |
| 2026-05-07 15:09 | 48.65358 | -54.72873 | 36061 ft | 409 kts | 239° |
| 2026-05-07 15:09 | 48.62856 | -54.80515 | 36057 ft | 409 kts | 239° |
| 2026-05-07 15:10 | 48.60335 | -54.88184 | 36058 ft | 409 kts | 239° |
| 2026-05-07 15:10 | 48.57801 | -54.95870 | 36056 ft | 408 kts | 239° |
| 2026-05-07 15:11 | 48.55267 | -55.03537 | 36051 ft | 408 kts | 239° |
| 2026-05-07 15:11 | 48.52742 | -55.11150 | 36050 ft | 408 kts | 239° |
| 2026-05-07 15:12 | 48.50207 | -55.18766 | 36049 ft | 408 kts | 239° |
| 2026-05-07 15:12 | 48.47654 | -55.26417 | 36050 ft | 408 kts | 239° |
| 2026-05-07 15:13 | 48.45096 | -55.34064 | 36051 ft | 409 kts | 239° |
| 2026-05-07 15:13 | 48.42531 | -55.41705 | 36045 ft | 409 kts | 239° |
| 2026-05-07 15:14 | 48.39946 | -55.49383 | 36042 ft | 409 kts | 239° |
| 2026-05-07 15:14 | 48.37378 | -55.56985 | 36046 ft | 409 kts | 239° |
| 2026-05-07 15:15 | 48.34796 | -55.64615 | 36041 ft | 409 kts | 239° |
| 2026-05-07 15:15 | 48.32208 | -55.72228 | 36043 ft | 409 kts | 239° |
| 2026-05-07 15:16 | 48.29635 | -55.79787 | 36036 ft | 408 kts | 239° |
| 2026-05-07 15:16 | 48.27035 | -55.87388 | 36036 ft | 408 kts | 239° |
| 2026-05-07 15:17 | 48.24442 | -55.94964 | 36040 ft | 407 kts | 239° |
| 2026-05-07 15:17 | 48.21847 | -56.02510 | 36040 ft | 408 kts | 239° |
| 2026-05-07 15:18 | 48.19235 | -56.10099 | 36029 ft | 408 kts | 239° |
| 2026-05-07 15:18 | 48.16637 | -56.17607 | 36027 ft | 407 kts | 239° |
| 2026-05-07 15:19 | 48.14025 | -56.25142 | 36024 ft | 408 kts | 239° |
| 2026-05-07 15:19 | 48.11429 | -56.32609 | 36022 ft | 407 kts | 239° |
| 2026-05-07 15:20 | 48.08802 | -56.40144 | 36019 ft | 408 kts | 238° |
| 2026-05-07 15:20 | 48.06183 | -56.47630 | 36013 ft | 406 kts | 239° |
| 2026-05-07 15:21 | 48.03540 | -56.55161 | 36014 ft | 406 kts | 239° |
| 2026-05-07 15:21 | 48.00926 | -56.62595 | 36016 ft | 407 kts | 239° |
| 2026-05-07 15:22 | 47.98278 | -56.70101 | 35993 ft | 407 kts | 238° |
| 2026-05-07 15:22 | 47.95620 | -56.77622 | 35989 ft | 407 kts | 238° |
| 2026-05-07 15:23 | 47.92979 | -56.85065 | 35992 ft | 406 kts | 238° |
| 2026-05-07 15:23 | 47.90330 | -56.92507 | 35984 ft | 406 kts | 238° |
| 2026-05-07 15:24 | 47.87690 | -56.99905 | 35991 ft | 406 kts | 238° |
| 2026-05-07 15:24 | 47.85028 | -57.07341 | 35985 ft | 405 kts | 238° |
| 2026-05-07 15:25 | 47.82377 | -57.14740 | 35977 ft | 406 kts | 238° |
| 2026-05-07 15:25 | 47.79704 | -57.22164 | 35980 ft | 406 kts | 239° |
| 2026-05-07 15:26 | 47.77039 | -57.29555 | 35982 ft | 406 kts | 238° |
| 2026-05-07 15:26 | 47.74365 | -57.36949 | 35965 ft | 406 kts | 238° |
| 2026-05-07 15:27 | 47.71676 | -57.44350 | 35973 ft | 405 kts | 239° |
| 2026-05-07 15:27 | 47.69016 | -57.51664 | 35958 ft | 405 kts | 239° |
| 2026-05-07 15:28 | 47.66337 | -57.58998 | 35963 ft | 405 kts | 239° |
| 2026-05-07 15:28 | 47.63623 | -57.66423 | 35967 ft | 405 kts | 238° |
| 2026-05-07 15:29 | 47.60942 | -57.73727 | 35975 ft | 406 kts | 238° |
| 2026-05-07 15:29 | 47.58250 | -57.81045 | 35974 ft | 406 kts | 238° |
| 2026-05-07 15:30 | 47.55528 | -57.88421 | 35969 ft | 405 kts | 238° |
| 2026-05-07 15:30 | 47.52828 | -57.95724 | 35976 ft | 405 kts | 238° |
| 2026-05-07 15:31 | 47.50125 | -58.03007 | 35947 ft | 405 kts | 238° |
| 2026-05-07 15:31 | 47.47421 | -58.10273 | 35940 ft | 405 kts | 238° |
| 2026-05-07 15:32 | 47.44706 | -58.17549 | 35937 ft | 402 kts | 239° |
| 2026-05-07 15:32 | 47.42003 | -58.24778 | 35931 ft | 401 kts | 239° |
| 2026-05-07 15:33 | 47.39307 | -58.31966 | 35934 ft | 401 kts | 239° |
| 2026-05-07 15:33 | 47.36601 | -58.39167 | 35935 ft | 401 kts | 239° |
| 2026-05-07 15:34 | 47.33913 | -58.46287 | 35912 ft | 399 kts | 239° |
| 2026-05-07 15:34 | 47.31204 | -58.53457 | 35911 ft | 399 kts | 239° |
| 2026-05-07 15:35 | 47.28490 | -58.60617 | 35908 ft | 399 kts | 239° |
| 2026-05-07 15:35 | 47.25777 | -58.67750 | 35915 ft | 398 kts | 239° |
| 2026-05-07 15:36 | 47.23082 | -58.74823 | 35901 ft | 398 kts | 239° |
| 2026-05-07 15:36 | 47.20381 | -58.81892 | 35887 ft | 397 kts | 239° |
| 2026-05-07 15:37 | 47.17683 | -58.88934 | 35883 ft | 396 kts | 240° |
| 2026-05-07 15:37 | 47.14995 | -58.95937 | 35895 ft | 396 kts | 240° |
| 2026-05-07 15:38 | 47.12286 | -59.02967 | 35881 ft | 395 kts | 240° |
| 2026-05-07 15:38 | 47.09604 | -59.09916 | 35880 ft | 395 kts | 240° |
| 2026-05-07 15:39 | 47.06904 | -59.16894 | 35879 ft | 394 kts | 240° |
| 2026-05-07 15:39 | 47.04194 | -59.23872 | 35875 ft | 392 kts | 240° |
| 2026-05-07 15:40 | 47.01512 | -59.30768 | 35858 ft | 392 kts | 240° |
| 2026-05-07 15:40 | 46.98826 | -59.37657 | 35863 ft | 391 kts | 240° |
| 2026-05-07 15:41 | 46.96131 | -59.44550 | 35867 ft | 391 kts | 240° |
| 2026-05-07 15:41 | 46.93441 | -59.51405 | 35855 ft | 389 kts | 240° |
| 2026-05-07 15:42 | 46.90749 | -59.58257 | 35854 ft | 388 kts | 240° |
| 2026-05-07 15:42 | 46.88070 | -59.65059 | 35850 ft | 388 kts | 240° |
| 2026-05-07 15:43 | 46.85377 | -59.71872 | 35843 ft | 387 kts | 240° |
| 2026-05-07 15:43 | 46.82688 | -59.78658 | 35835 ft | 387 kts | 240° |
| 2026-05-07 15:44 | 46.80012 | -59.85401 | 35829 ft | 385 kts | 240° |
| 2026-05-07 15:44 | 46.77331 | -59.92140 | 35823 ft | 386 kts | 240° |
| 2026-05-07 15:45 | 46.74642 | -59.98881 | 35822 ft | 385 kts | 240° |
| 2026-05-07 15:45 | 46.71954 | -60.05593 | 35820 ft | 383 kts | 240° |
| 2026-05-07 15:46 | 46.67930 | -60.15631 | 35806 ft | 382 kts | 240° |
| 2026-05-07 15:47 | 46.65264 | -60.22257 | 35801 ft | 382 kts | 240° |
| 2026-05-07 15:47 | 46.62566 | -60.28941 | 35794 ft | 381 kts | 240° |
| 2026-05-07 15:48 | 46.59897 | -60.35541 | 35791 ft | 381 kts | 240° |
| 2026-05-07 15:48 | 46.57211 | -60.42162 | 35794 ft | 379 kts | 240° |
| 2026-05-07 15:49 | 46.54537 | -60.48747 | 35784 ft | 379 kts | 240° |
| 2026-05-07 15:49 | 46.51865 | -60.55309 | 35778 ft | 379 kts | 240° |
| 2026-05-07 15:50 | 46.49192 | -60.61854 | 35781 ft | 377 kts | 240° |
| 2026-05-07 15:50 | 46.46525 | -60.68376 | 35785 ft | 376 kts | 239° |
| 2026-05-07 15:51 | 46.43859 | -60.74870 | 35789 ft | 376 kts | 240° |
| 2026-05-07 15:51 | 46.41197 | -60.81352 | 35777 ft | 375 kts | 239° |
| 2026-05-07 15:52 | 46.38533 | -60.87816 | 35767 ft | 375 kts | 239° |
| 2026-05-07 15:52 | 46.35870 | -60.94267 | 35779 ft | 374 kts | 239° |
| 2026-05-07 15:53 | 46.33200 | -61.00716 | 35776 ft | 373 kts | 239° |
| 2026-05-07 15:53 | 46.30551 | -61.07095 | 35763 ft | 373 kts | 239° |
| 2026-05-07 15:54 | 46.27883 | -61.13501 | 35768 ft | 370 kts | 240° |
| 2026-05-07 15:54 | 46.25221 | -61.19888 | 35762 ft | 371 kts | 240° |
| 2026-05-07 15:55 | 46.22577 | -61.26217 | 35776 ft | 371 kts | 239° |
| 2026-05-07 15:55 | 46.19915 | -61.32569 | 35773 ft | 370 kts | 240° |
| 2026-05-07 15:56 | 46.17262 | -61.38891 | 35765 ft | 370 kts | 240° |
| 2026-05-07 15:56 | 46.14595 | -61.45222 | 35765 ft | 369 kts | 240° |
| 2026-05-07 15:57 | 46.11944 | -61.51522 | 35764 ft | 368 kts | 240° |
| 2026-05-07 15:57 | 46.09291 | -61.57784 | 35756 ft | 366 kts | 240° |
| 2026-05-07 15:58 | 46.06656 | -61.64020 | 35752 ft | 365 kts | 240° |
| 2026-05-07 15:58 | 46.04024 | -61.70204 | 35738 ft | 364 kts | 240° |
| 2026-05-07 15:59 | 46.01379 | -61.76427 | 35736 ft | 364 kts | 239° |
| 2026-05-07 15:59 | 45.98748 | -61.82589 | 35726 ft | 362 kts | 239° |
| 2026-05-07 16:00 | 45.96121 | -61.88740 | 35700 ft | 363 kts | 239° |
| 2026-05-07 16:00 | 45.93486 | -61.94893 | 35712 ft | 362 kts | 240° |
| 2026-05-07 16:01 | 45.90829 | -62.01080 | 35716 ft | 362 kts | 239° |
| 2026-05-07 16:01 | 45.88193 | -62.07199 | 35730 ft | 362 kts | 239° |
| 2026-05-07 16:02 | 45.85546 | -62.13339 | 35722 ft | 361 kts | 239° |
| 2026-05-07 16:02 | 45.82899 | -62.19473 | 35730 ft | 361 kts | 239° |
| 2026-05-07 16:03 | 45.80264 | -62.25554 | 35730 ft | 360 kts | 239° |
| 2026-05-07 16:03 | 45.77607 | -62.31659 | 35732 ft | 362 kts | 239° |
| 2026-05-07 16:04 | 45.74895 | -62.37895 | 35734 ft | 361 kts | 240° |
| 2026-05-07 16:04 | 45.72245 | -62.43998 | 35735 ft | 361 kts | 239° |
| 2026-05-07 16:05 | 45.69615 | -62.50005 | 35735 ft | 359 kts | 240° |
| 2026-05-07 16:05 | 45.66965 | -62.56072 | 35730 ft | 360 kts | 239° |
| 2026-05-07 16:06 | 45.64313 | -62.62111 | 35724 ft | 359 kts | 238° |
| 2026-05-07 16:06 | 45.61666 | -62.68112 | 35737 ft | 358 kts | 239° |
| 2026-05-07 16:07 | 45.59034 | -62.74093 | 35724 ft | 358 kts | 238° |
| 2026-05-07 16:07 | 45.56384 | -62.80095 | 35728 ft | 358 kts | 239° |
| 2026-05-07 16:08 | 45.53738 | -62.86087 | 35725 ft | 357 kts | 238° |
| 2026-05-07 16:08 | 45.51090 | -62.92049 | 35721 ft | 356 kts | 238° |
| 2026-05-07 16:09 | 45.48445 | -62.97998 | 35707 ft | 356 kts | 239° |
| 2026-05-07 16:09 | 45.45802 | -63.03921 | 35704 ft | 356 kts | 238° |
| 2026-05-07 16:10 | 45.43169 | -63.09823 | 35722 ft | 355 kts | 238° |
| 2026-05-07 16:10 | 45.40524 | -63.15741 | 35706 ft | 356 kts | 238° |
| 2026-05-07 16:11 | 45.37862 | -63.21677 | 35709 ft | 356 kts | 239° |
| 2026-05-07 16:11 | 45.35202 | -63.27607 | 35715 ft | 356 kts | 238° |
| 2026-05-07 16:12 | 45.32559 | -63.33473 | 35713 ft | 354 kts | 239° |
| 2026-05-07 16:12 | 45.29903 | -63.39362 | 35707 ft | 355 kts | 239° |
| 2026-05-07 16:13 | 45.27245 | -63.45260 | 35713 ft | 355 kts | 238° |
| 2026-05-07 16:13 | 45.24594 | -63.51113 | 35725 ft | 354 kts | 238° |
| 2026-05-07 16:14 | 45.21924 | -63.56987 | 35731 ft | 355 kts | 239° |
| 2026-05-07 16:14 | 45.19248 | -63.62877 | 35724 ft | 354 kts | 239° |
| 2026-05-07 16:15 | 45.16598 | -63.68693 | 35723 ft | 353 kts | 238° |
| 2026-05-07 16:15 | 45.13922 | -63.74549 | 35724 ft | 354 kts | 239° |
| 2026-05-07 16:16 | 45.11272 | -63.80344 | 35728 ft | 353 kts | 238° |
| 2026-05-07 16:16 | 45.08585 | -63.86210 | 35717 ft | 353 kts | 238° |
| 2026-05-07 16:17 | 45.05918 | -63.92011 | 35727 ft | 353 kts | 238° |
| 2026-05-07 16:17 | 45.03225 | -63.97855 | 35719 ft | 352 kts | 239° |
| 2026-05-07 16:18 | 45.00565 | -64.03624 | 35716 ft | 353 kts | 239° |
| 2026-05-07 16:18 | 44.97890 | -64.09422 | 35717 ft | 352 kts | 238° |
| 2026-05-07 16:19 | 44.95205 | -64.15218 | 35703 ft | 353 kts | 238° |
| 2026-05-07 16:19 | 44.92520 | -64.20998 | 35718 ft | 352 kts | 239° |
| 2026-05-07 16:20 | 44.89833 | -64.26780 | 35718 ft | 353 kts | 238° |
| 2026-05-07 16:20 | 44.87141 | -64.32552 | 35715 ft | 352 kts | 238° |
| 2026-05-07 16:21 | 44.84453 | -64.38313 | 35723 ft | 352 kts | 239° |
| 2026-05-07 16:21 | 44.81767 | -64.44050 | 35708 ft | 353 kts | 238° |
| 2026-05-07 16:22 | 44.79075 | -64.49791 | 35709 ft | 353 kts | 239° |
| 2026-05-07 16:22 | 44.76364 | -64.55572 | 35697 ft | 354 kts | 239° |
| 2026-05-07 16:23 | 44.73651 | -64.61334 | 35709 ft | 354 kts | 238° |
| 2026-05-07 16:23 | 44.70945 | -64.67065 | 35694 ft | 354 kts | 238° |
| 2026-05-07 16:24 | 44.68224 | -64.72830 | 35682 ft | 354 kts | 238° |
| 2026-05-07 16:24 | 44.65500 | -64.78565 | 35685 ft | 354 kts | 239° |
| 2026-05-07 16:25 | 44.62786 | -64.84297 | 35702 ft | 353 kts | 238° |
| 2026-05-07 16:25 | 44.60067 | -64.90007 | 35705 ft | 353 kts | 239° |
| 2026-05-07 16:26 | 44.57365 | -64.95691 | 35697 ft | 352 kts | 238° |
| 2026-05-07 16:26 | 44.54649 | -65.01385 | 35691 ft | 352 kts | 238° |
| 2026-05-07 16:27 | 44.51928 | -65.07073 | 35701 ft | 352 kts | 239° |
| 2026-05-07 16:27 | 44.49213 | -65.12741 | 35694 ft | 352 kts | 238° |
| 2026-05-07 16:28 | 44.46484 | -65.18425 | 35706 ft | 350 kts | 238° |
| 2026-05-07 16:28 | 44.43774 | -65.24063 | 35700 ft | 350 kts | 238° |
| 2026-05-07 16:29 | 44.41060 | -65.29689 | 35711 ft | 349 kts | 239° |
| 2026-05-07 16:29 | 44.38350 | -65.35293 | 35703 ft | 347 kts | 239° |
| 2026-05-07 16:30 | 44.35656 | -65.40870 | 35708 ft | 347 kts | 239° |
| 2026-05-07 16:30 | 44.32963 | -65.46433 | 35709 ft | 346 kts | 239° |
| 2026-05-07 16:31 | 44.30262 | -65.51986 | 35713 ft | 345 kts | 239° |
| 2026-05-07 16:31 | 44.27573 | -65.57512 | 35717 ft | 346 kts | 239° |
| 2026-05-07 16:32 | 44.24875 | -65.63039 | 35716 ft | 344 kts | 239° |
| 2026-05-07 16:32 | 44.22198 | -65.68516 | 35721 ft | 343 kts | 238° |
| 2026-05-07 16:33 | 44.19517 | -65.74007 | 35715 ft | 343 kts | 238° |
| 2026-05-07 16:33 | 44.16830 | -65.79486 | 35727 ft | 342 kts | 239° |
| 2026-05-07 16:34 | 44.14165 | -65.84909 | 35738 ft | 341 kts | 238° |
| 2026-05-07 16:34 | 44.11494 | -65.90336 | 35737 ft | 341 kts | 238° |
| 2026-05-07 16:35 | 44.08808 | -65.95786 | 35733 ft | 340 kts | 239° |
| 2026-05-07 16:35 | 44.06141 | -66.01174 | 35746 ft | 340 kts | 238° |
| 2026-05-07 16:36 | 44.03465 | -66.06596 | 35744 ft | 339 kts | 238° |
| 2026-05-07 16:36 | 44.00799 | -66.11970 | 35735 ft | 339 kts | 239° |
| 2026-05-07 16:37 | 43.98138 | -66.17324 | 35734 ft | 339 kts | 238° |
| 2026-05-07 16:37 | 43.95462 | -66.22701 | 35738 ft | 338 kts | 239° |
| 2026-05-07 16:38 | 43.92809 | -66.28022 | 35739 ft | 337 kts | 239° |
| 2026-05-07 16:38 | 43.90141 | -66.33373 | 35736 ft | 337 kts | 238° |
| 2026-05-07 16:39 | 43.87456 | -66.38730 | 35741 ft | 337 kts | 238° |
| 2026-05-07 16:39 | 43.84800 | -66.44032 | 35738 ft | 337 kts | 239° |
| 2026-05-07 16:40 | 43.82123 | -66.49365 | 35735 ft | 338 kts | 239° |
| 2026-05-07 16:40 | 43.79459 | -66.54662 | 35736 ft | 337 kts | 239° |
| 2026-05-07 16:41 | 43.76780 | -66.59985 | 35742 ft | 337 kts | 238° |
| 2026-05-07 16:41 | 43.74099 | -66.65296 | 35742 ft | 337 kts | 239° |
| 2026-05-07 16:42 | 43.71400 | -66.70634 | 35749 ft | 337 kts | 238° |
| 2026-05-07 16:42 | 43.68724 | -66.75922 | 35753 ft | 337 kts | 238° |
| 2026-05-07 16:43 | 43.66043 | -66.81226 | 35757 ft | 337 kts | 238° |
| 2026-05-07 16:43 | 43.63364 | -66.86497 | 35758 ft | 337 kts | 238° |
| 2026-05-07 16:44 | 43.60670 | -66.91775 | 35756 ft | 337 kts | 238° |
| 2026-05-07 16:44 | 43.58157 | -66.97165 | 35754 ft | 336 kts | 241° |
| 2026-05-07 16:45 | 43.55960 | -67.02801 | 35760 ft | 334 kts | 245° |
| 2026-05-07 16:45 | 43.54083 | -67.08678 | 35759 ft | 335 kts | 249° |
| 2026-05-07 16:46 | 43.52404 | -67.14609 | 35759 ft | 334 kts | 249° |
| 2026-05-07 16:46 | 43.50717 | -67.20557 | 35762 ft | 334 kts | 249° |
| 2026-05-07 16:47 | 43.49028 | -67.26529 | 35765 ft | 335 kts | 248° |
| 2026-05-07 16:47 | 43.47353 | -67.32451 | 35768 ft | 334 kts | 248° |
| 2026-05-07 16:48 | 43.45663 | -67.38422 | 35779 ft | 334 kts | 248° |
| 2026-05-07 16:48 | 43.43985 | -67.44344 | 35774 ft | 333 kts | 248° |
| 2026-05-07 16:49 | 43.42305 | -67.50250 | 35777 ft | 334 kts | 249° |
| 2026-05-07 16:49 | 43.40610 | -67.56213 | 35782 ft | 335 kts | 248° |
| 2026-05-07 16:50 | 43.38918 | -67.62148 | 35777 ft | 334 kts | 249° |
| 2026-05-07 16:50 | 43.37232 | -67.68047 | 35776 ft | 334 kts | 249° |
| 2026-05-07 16:51 | 43.35545 | -67.73952 | 35772 ft | 333 kts | 248° |
| 2026-05-07 16:51 | 43.33842 | -67.79883 | 35770 ft | 333 kts | 248° |
| 2026-05-07 16:52 | 43.32153 | -67.85752 | 35769 ft | 333 kts | 248° |
| 2026-05-07 16:52 | 43.30444 | -67.91667 | 35762 ft | 333 kts | 248° |
| 2026-05-07 16:53 | 43.28754 | -67.97524 | 35762 ft | 333 kts | 249° |
| 2026-05-07 16:53 | 43.27042 | -68.03458 | 35767 ft | 333 kts | 248° |
| 2026-05-07 16:54 | 43.25335 | -68.09315 | 35769 ft | 333 kts | 248° |
| 2026-05-07 16:54 | 43.23624 | -68.15190 | 35770 ft | 332 kts | 248° |
| 2026-05-07 16:55 | 43.21918 | -68.21047 | 35770 ft | 333 kts | 248° |
| 2026-05-07 16:55 | 43.20202 | -68.26897 | 35773 ft | 329 kts | 249° |
| 2026-05-07 16:56 | 43.18519 | -68.32657 | 35775 ft | 328 kts | 249° |
| 2026-05-07 16:56 | 43.15958 | -68.41373 | 35785 ft | 327 kts | 248° |
| 2026-05-07 16:57 | 43.14260 | -68.47129 | 35787 ft | 327 kts | 249° |
| 2026-05-07 16:57 | 43.12565 | -68.52865 | 35789 ft | 327 kts | 248° |
| 2026-05-07 16:58 | 43.10857 | -68.58634 | 35785 ft | 326 kts | 248° |
| 2026-05-07 16:58 | 43.09156 | -68.64361 | 35548 ft | 326 kts | 248° |
| 2026-05-07 16:59 | 43.08305 | -68.67227 | 35321 ft | 322 kts | 247° |
| 2026-05-07 16:59 | 43.07464 | -68.70032 | 35094 ft | 318 kts | 248° |
| 2026-05-07 16:59 | 43.06628 | -68.72839 | 34857 ft | 314 kts | 247° |
| 2026-05-07 16:59 | 43.05815 | -68.75574 | 34628 ft | 311 kts | 248° |
| 2026-05-07 17:00 | 43.05011 | -68.78275 | 34401 ft | 308 kts | 248° |
| 2026-05-07 17:00 | 43.04200 | -68.80994 | 34172 ft | 306 kts | 248° |
| 2026-05-07 17:00 | 43.03400 | -68.83655 | 33944 ft | 306 kts | 248° |
| 2026-05-07 17:00 | 43.02596 | -68.86347 | 33716 ft | 304 kts | 247° |
| 2026-05-07 17:01 | 43.01795 | -68.89014 | 33473 ft | 301 kts | 249° |
| 2026-05-07 17:01 | 43.01002 | -68.91661 | 33208 ft | 301 kts | 248° |
| 2026-05-07 17:01 | 43.00214 | -68.94292 | 32856 ft | 302 kts | 248° |
| 2026-05-07 17:01 | 42.99417 | -68.96942 | 32278 ft | 304 kts | 248° |
| 2026-05-07 17:02 | 42.98619 | -68.99611 | 31600 ft | 303 kts | 248° |
| 2026-05-07 17:02 | 42.97809 | -69.02280 | 31329 ft | 305 kts | 248° |
| 2026-05-07 17:02 | 42.97006 | -69.04955 | 31078 ft | 307 kts | 248° |
| 2026-05-07 17:02 | 42.96192 | -69.07645 | 30830 ft | 308 kts | 248° |
| 2026-05-07 17:03 | 42.95371 | -69.10365 | 30578 ft | 309 kts | 248° |
| 2026-05-07 17:03 | 42.94550 | -69.13078 | 30310 ft | 310 kts | 248° |
| 2026-05-07 17:03 | 42.93729 | -69.15791 | 29853 ft | 312 kts | 247° |
| 2026-05-07 17:03 | 42.92881 | -69.18574 | 29163 ft | 313 kts | 247° |
| 2026-05-07 17:04 | 42.92053 | -69.21313 | 28367 ft | 317 kts | 247° |
| 2026-05-07 17:04 | 42.91211 | -69.24078 | 27505 ft | 317 kts | 248° |
| 2026-05-07 17:04 | 42.90373 | -69.26831 | 26880 ft | 310 kts | 248° |
| 2026-05-07 17:04 | 42.89563 | -69.29501 | 26315 ft | 308 kts | 248° |
| 2026-05-07 17:05 | 42.88738 | -69.32210 | 25761 ft | 307 kts | 248° |
| 2026-05-07 17:05 | 42.87926 | -69.34859 | 25216 ft | 308 kts | 248° |
| 2026-05-07 17:05 | 42.87106 | -69.37555 | 24711 ft | 309 kts | 248° |
| 2026-05-07 17:05 | 42.86278 | -69.40274 | 24168 ft | 311 kts | 248° |
| 2026-05-07 17:06 | 42.85452 | -69.42984 | 23551 ft | 314 kts | 248° |
| 2026-05-07 17:06 | 42.84614 | -69.45712 | 22934 ft | 316 kts | 248° |
| 2026-05-07 17:06 | 42.83771 | -69.48473 | 22388 ft | 316 kts | 247° |
| 2026-05-07 17:06 | 42.82926 | -69.51241 | 21842 ft | 316 kts | 247° |
| 2026-05-07 17:07 | 42.82085 | -69.53972 | 21298 ft | 316 kts | 246° |
| 2026-05-07 17:07 | 42.81239 | -69.56724 | 20777 ft | 315 kts | 246° |
| 2026-05-07 17:07 | 42.80392 | -69.59473 | 20283 ft | 314 kts | 246° |
| 2026-05-07 17:07 | 42.79548 | -69.62206 | 19770 ft | 314 kts | 246° |
| 2026-05-07 17:08 | 42.78712 | -69.64916 | 19229 ft | 314 kts | 246° |
| 2026-05-07 17:08 | 42.77860 | -69.67667 | 18717 ft | 314 kts | 245° |
| 2026-05-07 17:08 | 42.77010 | -69.70430 | 18197 ft | 314 kts | 245° |
| 2026-05-07 17:08 | 42.76157 | -69.73176 | 17688 ft | 314 kts | 245° |
| 2026-05-07 17:09 | 42.75306 | -69.75919 | 17194 ft | 313 kts | 245° |
| 2026-05-07 17:09 | 42.74470 | -69.78616 | 16716 ft | 312 kts | 245° |
| 2026-05-07 17:09 | 42.73625 | -69.81335 | 16231 ft | 310 kts | 245° |
| 2026-05-07 17:09 | 42.72790 | -69.84028 | 15757 ft | 308 kts | 246° |
| 2026-05-07 17:10 | 42.71964 | -69.86684 | 15282 ft | 306 kts | 246° |
| 2026-05-07 17:10 | 42.71121 | -69.89393 | 14797 ft | 304 kts | 246° |
| 2026-05-07 17:10 | 42.70294 | -69.92044 | 14322 ft | 302 kts | 246° |
| 2026-05-07 17:10 | 42.69459 | -69.94732 | 13834 ft | 300 kts | 246° |
| 2026-05-07 17:11 | 42.68631 | -69.97379 | 13350 ft | 299 kts | 246° |
| 2026-05-07 17:11 | 42.67830 | -69.99944 | 12866 ft | 297 kts | 246° |
| 2026-05-07 17:11 | 42.67020 | -70.02530 | 12354 ft | 297 kts | 247° |
| 2026-05-07 17:11 | 42.66217 | -70.05099 | 11865 ft | 296 kts | 247° |
| 2026-05-07 17:12 | 42.65404 | -70.07684 | 11368 ft | 295 kts | 248° |
| 2026-05-07 17:12 | 42.64586 | -70.10217 | 10941 ft | 291 kts | 246° |
| 2026-05-07 17:12 | 42.63758 | -70.12635 | 10764 ft | 278 kts | 246° |
| 2026-05-07 17:12 | 42.62951 | -70.14958 | 10588 ft | 266 kts | 246° |
| 2026-05-07 17:13 | 42.62188 | -70.17172 | 10438 ft | 255 kts | 246° |
| 2026-05-07 17:13 | 42.61449 | -70.19316 | 10230 ft | 245 kts | 246° |
| 2026-05-07 17:13 | 42.60720 | -70.21362 | 10084 ft | 235 kts | 241° |
| 2026-05-07 17:13 | 42.59652 | -70.23002 | 9950 ft | 237 kts | 223° |
| 2026-05-07 17:14 | 42.58136 | -70.24143 | 9968 ft | 257 kts | 210° |
| 2026-05-07 17:14 | 42.56486 | -70.25058 | 9985 ft | 259 kts | 209° |
| 2026-05-07 17:14 | 42.54808 | -70.25977 | 9985 ft | 259 kts | 209° |
| 2026-05-07 17:14 | 42.53109 | -70.26901 | 9936 ft | 259 kts | 209° |
| 2026-05-07 17:15 | 42.51447 | -70.27805 | 9535 ft | 261 kts | 209° |
| 2026-05-07 17:15 | 42.49755 | -70.28734 | 9122 ft | 258 kts | 211° |
| 2026-05-07 17:15 | 42.48370 | -70.30135 | 8715 ft | 248 kts | 235° |
| 2026-05-07 17:15 | 42.47596 | -70.32185 | 8294 ft | 242 kts | 256° |
| 2026-05-07 17:16 | 42.47210 | -70.34419 | 7932 ft | 240 kts | 258° |
| 2026-05-07 17:16 | 42.46835 | -70.36596 | 7602 ft | 239 kts | 258° |
| 2026-05-07 17:16 | 42.46460 | -70.38770 | 7246 ft | 238 kts | 259° |
| 2026-05-07 17:16 | 42.46088 | -70.40942 | 6894 ft | 237 kts | 259° |
| 2026-05-07 17:17 | 42.45711 | -70.43137 | 6558 ft | 235 kts | 259° |
| 2026-05-07 17:17 | 42.45344 | -70.45274 | 6236 ft | 234 kts | 260° |
| 2026-05-07 17:17 | 42.44980 | -70.47392 | 6004 ft | 228 kts | 260° |
| 2026-05-07 17:17 | 42.44627 | -70.49434 | 5979 ft | 213 kts | 260° |
| 2026-05-07 17:18 | 42.44302 | -70.51337 | 5982 ft | 209 kts | 260° |
| 2026-05-07 17:18 | 42.43970 | -70.53271 | 5978 ft | 208 kts | 260° |
| 2026-05-07 17:18 | 42.43644 | -70.55173 | 5953 ft | 209 kts | 260° |
| 2026-05-07 17:18 | 42.43315 | -70.57072 | 5736 ft | 208 kts | 261° |
| 2026-05-07 17:19 | 42.43023 | -70.58975 | 5484 ft | 207 kts | 262° |
| 2026-05-07 17:19 | 42.42733 | -70.60908 | 5136 ft | 208 kts | 261° |
| 2026-05-07 17:19 | 42.42430 | -70.62813 | 4823 ft | 207 kts | 261° |
| 2026-05-07 17:19 | 42.42110 | -70.64715 | 4545 ft | 207 kts | 261° |
| 2026-05-07 17:20 | 42.41782 | -70.66592 | 4284 ft | 204 kts | 259° |
| 2026-05-07 17:20 | 42.41454 | -70.68431 | 4053 ft | 199 kts | 259° |
| 2026-05-07 17:20 | 42.41125 | -70.70246 | 3836 ft | 198 kts | 260° |
| 2026-05-07 17:20 | 42.40801 | -70.72039 | 3621 ft | 198 kts | 259° |
| 2026-05-07 17:21 | 42.40472 | -70.73856 | 3425 ft | 198 kts | 259° |
| 2026-05-07 17:21 | 42.40145 | -70.75658 | 3280 ft | 197 kts | 259° |
| 2026-05-07 17:21 | 42.39825 | -70.77426 | 3153 ft | 188 kts | 260° |
| 2026-05-07 17:21 | 42.39526 | -70.79084 | 2965 ft | 179 kts | 259° |
| 2026-05-07 17:22 | 42.39231 | -70.80724 | 2699 ft | 175 kts | 260° |
| 2026-05-07 17:22 | 42.38945 | -70.82325 | 2446 ft | 175 kts | 260° |
| 2026-05-07 17:22 | 42.38662 | -70.83906 | 2198 ft | 170 kts | 260° |
| 2026-05-07 17:22 | 42.38389 | -70.85429 | 1956 ft | 160 kts | 261° |
| 2026-05-07 17:23 | 42.38139 | -70.86818 | 1759 ft | 144 kts | 261° |
| 2026-05-07 17:23 | 42.37911 | -70.88094 | 1569 ft | 134 kts | 261° |
| 2026-05-07 17:23 | 42.37698 | -70.89300 | 1400 ft | 130 kts | 261° |
| 2026-05-07 17:23 | 42.37489 | -70.90485 | 1239 ft | 130 kts | 260° |
| 2026-05-07 17:24 | 42.37277 | -70.91681 | 1078 ft | 129 kts | 260° |
| 2026-05-07 17:24 | 42.37069 | -70.92860 | 907 ft | 129 kts | 260° |
| 2026-05-07 17:24 | 42.36860 | -70.94039 | 729 ft | 129 kts | 259° |
| 2026-05-07 17:24 | 42.36637 | -70.95222 | 577 ft | 129 kts | 259° |
| 2026-05-07 17:25 | 42.36425 | -70.96401 | 392 ft | 129 kts | 259° |
| 2026-05-07 17:25 | 42.36222 | -70.97571 | 217 ft | 131 kts | 260° |
| 2026-05-07 17:25 | 42.36017 | -70.98784 | 56 ft | 131 kts | 258° |
| 2026-05-07 17:25 | 42.35824 | -70.99894 | 13 ft | 106 kts | 256° |
| 2026-05-07 17:26 | 42.35691 | -71.00645 | 16 ft | 57 kts | 257° |
| 2026-05-07 17:26 | 42.35634 | -71.01007 | 19 ft | 32 kts | 269° |
| 2026-05-07 17:26 | 42.35677 | -71.01180 | 22 ft | 11 kts | 306° |
| 2026-05-07 17:26 | 42.35725 | -71.01269 | 22 ft | 11 kts | 304° |
| 2026-05-07 17:27 | 42.35759 | -71.01375 | 22 ft | 12 kts | 290° |
| 2026-05-07 17:27 | 42.35788 | -71.01485 | 22 ft | 12 kts | 290° |
| 2026-05-07 17:27 | 42.35847 | -71.01563 | 21 ft | 13 kts | 5° |
| 2026-05-07 17:27 | 42.35945 | -71.01521 | 20 ft | 16 kts | 19° |
| 2026-05-07 17:28 | 42.36065 | -71.01463 | 19 ft | 19 kts | 20° |
| 2026-05-07 17:28 | 42.36197 | -71.01400 | 19 ft | 20 kts | 20° |
| 2026-05-07 17:28 | 42.36332 | -71.01335 | 19 ft | 20 kts | 21° |
| 2026-05-07 17:28 | 42.36464 | -71.01271 | 19 ft | 20 kts | 20° |
| 2026-05-07 17:29 | 42.36601 | -71.01204 | 17 ft | 21 kts | 20° |
| 2026-05-07 17:29 | 42.36734 | -71.01142 | 16 ft | 15 kts | 10° |
| 2026-05-07 17:29 | 42.36827 | -71.01195 | 16 ft | 15 kts | 315° |
| 2026-05-07 17:29 | 42.36901 | -71.01295 | 16 ft | 15 kts | 315° |
| 2026-05-07 17:30 | 42.36980 | -71.01405 | 16 ft | 16 kts | 317° |
| 2026-05-07 17:30 | 42.37044 | -71.01499 | 15 ft | 10 kts | 284° |
| 2026-05-07 17:30 | 42.37009 | -71.01567 | 16 ft | 9 kts | 213° |
| 2026-05-07 17:30 | 42.36951 | -71.01618 | 16 ft | 10 kts | 213° |
| 2026-05-07 17:31 | 42.36890 | -71.01673 | 16 ft | 9 kts | 214° |
| 2026-05-07 17:31 | 42.36859 | -71.01732 | 16 ft | 7 kts | 262° |
| 2026-05-07 17:31 | 42.36857 | -71.01775 | 16 ft | 2 kts | 266° |
| 2026-05-07 17:31 | 42.36856 | -71.01783 | 16 ft | 1 kts | 265° |
| 2026-05-07 17:32 | 42.36856 | -71.01791 | 16 ft | 0 kts | 266° |